<?xml version="1.0" encoding="UTF-8" standalone="no" ?>
<gpx xmlns="http://www.topografix.com/GPX/1/1" xmlns:xsi="http://www.w3.org/2001/XMLSchema-instance" xsi:schemaLocation="http://www.topografix.com/GPX/1/1 http://www.topografix.com/GPX/1/1/gpx.xsd" version="1.1" creator="VisuGPX - https://www.visugpx.com">
  <metadata>
    <name>davron crespieres orgeval</name>
    <desc><![CDATA[rando pedestre du 23 janvier 2012]]></desc>
  </metadata>
  <trk>
    <name><![CDATA[DAVRON CRESPIERES ORGEVAL]]></name>
    <trkseg>
      <trkpt lat="48.86576" lon="1.94076">
        <ele>97.71</ele>
        <time>2012-01-23T12:49:29Z</time>
      </trkpt>
      <trkpt lat="48.86577" lon="1.94073">
        <ele>98.67</ele>
        <time>2012-01-23T12:49:48Z</time>
      </trkpt>
      <trkpt lat="48.86579" lon="1.94063">
        <ele>98.67</ele>
        <time>2012-01-23T12:50:07Z</time>
      </trkpt>
      <trkpt lat="48.86579" lon="1.94056">
        <ele>98.67</ele>
        <time>2012-01-23T12:50:13Z</time>
      </trkpt>
      <trkpt lat="48.8658" lon="1.94034">
        <ele>98.19</ele>
        <time>2012-01-23T12:50:26Z</time>
      </trkpt>
      <trkpt lat="48.86579" lon="1.94022">
        <ele>98.67</ele>
        <time>2012-01-23T12:50:31Z</time>
      </trkpt>
      <trkpt lat="48.86579" lon="1.94013">
        <ele>97.71</ele>
        <time>2012-01-23T12:50:35Z</time>
      </trkpt>
      <trkpt lat="48.8658" lon="1.93983">
        <ele>97.71</ele>
        <time>2012-01-23T12:50:50Z</time>
      </trkpt>
      <trkpt lat="48.8658" lon="1.93974">
        <ele>97.71</ele>
        <time>2012-01-23T12:50:54Z</time>
      </trkpt>
      <trkpt lat="48.86584" lon="1.93942">
        <ele>99.15</ele>
        <time>2012-01-23T12:51:10Z</time>
      </trkpt>
      <trkpt lat="48.86589" lon="1.9391">
        <ele>98.67</ele>
        <time>2012-01-23T12:51:26Z</time>
      </trkpt>
      <trkpt lat="48.86593" lon="1.93877">
        <ele>97.71</ele>
        <time>2012-01-23T12:51:43Z</time>
      </trkpt>
      <trkpt lat="48.86597" lon="1.93849">
        <ele>97.71</ele>
        <time>2012-01-23T12:51:57Z</time>
      </trkpt>
      <trkpt lat="48.866" lon="1.93811">
        <ele>97.71</ele>
        <time>2012-01-23T12:52:16Z</time>
      </trkpt>
      <trkpt lat="48.86605" lon="1.93782">
        <ele>97.23</ele>
        <time>2012-01-23T12:52:31Z</time>
      </trkpt>
      <trkpt lat="48.8661" lon="1.93755">
        <ele>97.71</ele>
        <time>2012-01-23T12:52:45Z</time>
      </trkpt>
      <trkpt lat="48.86614" lon="1.93749">
        <ele>97.23</ele>
        <time>2012-01-23T12:52:49Z</time>
      </trkpt>
      <trkpt lat="48.86616" lon="1.93741">
        <ele>96.75</ele>
        <time>2012-01-23T12:52:53Z</time>
      </trkpt>
      <trkpt lat="48.86617" lon="1.93738">
        <ele>96.75</ele>
        <time>2012-01-23T12:52:55Z</time>
      </trkpt>
      <trkpt lat="48.86618" lon="1.93735">
        <ele>96.75</ele>
        <time>2012-01-23T12:52:57Z</time>
      </trkpt>
      <trkpt lat="48.86622" lon="1.93708">
        <ele>97.71</ele>
        <time>2012-01-23T12:53:11Z</time>
      </trkpt>
      <trkpt lat="48.86627" lon="1.93678">
        <ele>96.75</ele>
        <time>2012-01-23T12:53:26Z</time>
      </trkpt>
      <trkpt lat="48.86634" lon="1.93651">
        <ele>97.71</ele>
        <time>2012-01-23T12:53:41Z</time>
      </trkpt>
      <trkpt lat="48.86642" lon="1.93626">
        <ele>98.67</ele>
        <time>2012-01-23T12:53:55Z</time>
      </trkpt>
      <trkpt lat="48.86647" lon="1.93609">
        <ele>97.71</ele>
        <time>2012-01-23T12:54:04Z</time>
      </trkpt>
      <trkpt lat="48.86649" lon="1.93606">
        <ele>97.71</ele>
        <time>2012-01-23T12:54:07Z</time>
      </trkpt>
      <trkpt lat="48.86658" lon="1.93588">
        <ele>97.23</ele>
        <time>2012-01-23T12:54:20Z</time>
      </trkpt>
      <trkpt lat="48.86663" lon="1.93577">
        <ele>96.75</ele>
        <time>2012-01-23T12:54:26Z</time>
      </trkpt>
      <trkpt lat="48.86668" lon="1.93565">
        <ele>97.23</ele>
        <time>2012-01-23T12:54:33Z</time>
      </trkpt>
      <trkpt lat="48.8668" lon="1.93538">
        <ele>97.71</ele>
        <time>2012-01-23T12:54:49Z</time>
      </trkpt>
      <trkpt lat="48.86681" lon="1.93535">
        <ele>97.23</ele>
        <time>2012-01-23T12:54:51Z</time>
      </trkpt>
      <trkpt lat="48.86689" lon="1.93514">
        <ele>100.11</ele>
        <time>2012-01-23T12:55:03Z</time>
      </trkpt>
      <trkpt lat="48.86697" lon="1.93501">
        <ele>101.08</ele>
        <time>2012-01-23T12:55:12Z</time>
      </trkpt>
      <trkpt lat="48.8671" lon="1.93471">
        <ele>101.56</ele>
        <time>2012-01-23T12:55:30Z</time>
      </trkpt>
      <trkpt lat="48.86718" lon="1.93448">
        <ele>103</ele>
        <time>2012-01-23T12:55:43Z</time>
      </trkpt>
      <trkpt lat="48.8673" lon="1.9342">
        <ele>104.44</ele>
        <time>2012-01-23T12:55:59Z</time>
      </trkpt>
      <trkpt lat="48.86742" lon="1.9339">
        <ele>104.92</ele>
        <time>2012-01-23T12:56:16Z</time>
      </trkpt>
      <trkpt lat="48.86753" lon="1.93364">
        <ele>104.44</ele>
        <time>2012-01-23T12:56:31Z</time>
      </trkpt>
      <trkpt lat="48.86764" lon="1.9334">
        <ele>104.92</ele>
        <time>2012-01-23T12:56:45Z</time>
      </trkpt>
      <trkpt lat="48.86775" lon="1.93315">
        <ele>105.88</ele>
        <time>2012-01-23T12:57:00Z</time>
      </trkpt>
      <trkpt lat="48.86787" lon="1.9329">
        <ele>105.88</ele>
        <time>2012-01-23T12:57:14Z</time>
      </trkpt>
      <trkpt lat="48.86787" lon="1.93288">
        <ele>105.4</ele>
        <time>2012-01-23T12:57:15Z</time>
      </trkpt>
      <trkpt lat="48.86788" lon="1.93282">
        <ele>105.4</ele>
        <time>2012-01-23T12:57:18Z</time>
      </trkpt>
      <trkpt lat="48.86791" lon="1.93275">
        <ele>105.4</ele>
        <time>2012-01-23T12:57:22Z</time>
      </trkpt>
      <trkpt lat="48.86809" lon="1.93237">
        <ele>104.44</ele>
        <time>2012-01-23T12:57:44Z</time>
      </trkpt>
      <trkpt lat="48.86825" lon="1.93205">
        <ele>103.96</ele>
        <time>2012-01-23T12:58:03Z</time>
      </trkpt>
      <trkpt lat="48.86841" lon="1.93178">
        <ele>102.52</ele>
        <time>2012-01-23T12:58:20Z</time>
      </trkpt>
      <trkpt lat="48.86856" lon="1.93148">
        <ele>102.04</ele>
        <time>2012-01-23T12:58:39Z</time>
      </trkpt>
      <trkpt lat="48.86868" lon="1.93127">
        <ele>102.04</ele>
        <time>2012-01-23T12:58:52Z</time>
      </trkpt>
      <trkpt lat="48.86869" lon="1.93125">
        <ele>102.04</ele>
        <time>2012-01-23T12:58:53Z</time>
      </trkpt>
      <trkpt lat="48.86884" lon="1.93096">
        <ele>102.04</ele>
        <time>2012-01-23T12:59:11Z</time>
      </trkpt>
      <trkpt lat="48.86881" lon="1.93092">
        <ele>100.11</ele>
        <time>2012-01-23T12:59:22Z</time>
      </trkpt>
      <trkpt lat="48.86888" lon="1.93081">
        <ele>98.19</ele>
        <time>2012-01-23T12:59:30Z</time>
      </trkpt>
      <trkpt lat="48.869" lon="1.93048">
        <ele>96.27</ele>
        <time>2012-01-23T12:59:48Z</time>
      </trkpt>
      <trkpt lat="48.86902" lon="1.93046">
        <ele>95.79</ele>
        <time>2012-01-23T12:59:49Z</time>
      </trkpt>
      <trkpt lat="48.86905" lon="1.93042">
        <ele>95.79</ele>
        <time>2012-01-23T13:00:04Z</time>
      </trkpt>
      <trkpt lat="48.86905" lon="1.93042">
        <ele>95.79</ele>
        <time>2012-01-23T13:00:39Z</time>
      </trkpt>
      <trkpt lat="48.86905" lon="1.93042">
        <ele>95.79</ele>
        <time>2012-01-23T13:01:13Z</time>
      </trkpt>
      <trkpt lat="48.86906" lon="1.93041">
        <ele>95.31</ele>
        <time>2012-01-23T13:01:18Z</time>
      </trkpt>
      <trkpt lat="48.86911" lon="1.93038">
        <ele>93.87</ele>
        <time>2012-01-23T13:01:23Z</time>
      </trkpt>
      <trkpt lat="48.86914" lon="1.93034">
        <ele>93.39</ele>
        <time>2012-01-23T13:01:26Z</time>
      </trkpt>
      <trkpt lat="48.86927" lon="1.93021">
        <ele>91.46</ele>
        <time>2012-01-23T13:01:37Z</time>
      </trkpt>
      <trkpt lat="48.8695" lon="1.93003">
        <ele>89.06</ele>
        <time>2012-01-23T13:01:56Z</time>
      </trkpt>
      <trkpt lat="48.86955" lon="1.92998">
        <ele>88.1</ele>
        <time>2012-01-23T13:02:10Z</time>
      </trkpt>
      <trkpt lat="48.86955" lon="1.92996">
        <ele>88.1</ele>
        <time>2012-01-23T13:02:11Z</time>
      </trkpt>
      <trkpt lat="48.86968" lon="1.92985">
        <ele>87.62</ele>
        <time>2012-01-23T13:02:21Z</time>
      </trkpt>
      <trkpt lat="48.86988" lon="1.92967">
        <ele>87.14</ele>
        <time>2012-01-23T13:02:36Z</time>
      </trkpt>
      <trkpt lat="48.87008" lon="1.92951">
        <ele>87.62</ele>
        <time>2012-01-23T13:02:52Z</time>
      </trkpt>
      <trkpt lat="48.87025" lon="1.92935">
        <ele>85.69</ele>
        <time>2012-01-23T13:03:05Z</time>
      </trkpt>
      <trkpt lat="48.8703" lon="1.92928">
        <ele>84.73</ele>
        <time>2012-01-23T13:03:10Z</time>
      </trkpt>
      <trkpt lat="48.87044" lon="1.92918">
        <ele>79.93</ele>
        <time>2012-01-23T13:03:25Z</time>
      </trkpt>
      <trkpt lat="48.87052" lon="1.92921">
        <ele>77.04</ele>
        <time>2012-01-23T13:03:36Z</time>
      </trkpt>
      <trkpt lat="48.87055" lon="1.92921">
        <ele>76.56</ele>
        <time>2012-01-23T13:03:38Z</time>
      </trkpt>
      <trkpt lat="48.87069" lon="1.92917">
        <ele>74.16</ele>
        <time>2012-01-23T13:03:51Z</time>
      </trkpt>
      <trkpt lat="48.87087" lon="1.92917">
        <ele>71.76</ele>
        <time>2012-01-23T13:04:04Z</time>
      </trkpt>
      <trkpt lat="48.87101" lon="1.92916">
        <ele>68.39</ele>
        <time>2012-01-23T13:04:20Z</time>
      </trkpt>
      <trkpt lat="48.87116" lon="1.92911">
        <ele>65.99</ele>
        <time>2012-01-23T13:04:37Z</time>
      </trkpt>
      <trkpt lat="48.8714" lon="1.92903">
        <ele>65.03</ele>
        <time>2012-01-23T13:04:52Z</time>
      </trkpt>
      <trkpt lat="48.87157" lon="1.92899">
        <ele>62.14</ele>
        <time>2012-01-23T13:05:08Z</time>
      </trkpt>
      <trkpt lat="48.87164" lon="1.92897">
        <ele>60.7</ele>
        <time>2012-01-23T13:05:23Z</time>
      </trkpt>
      <trkpt lat="48.87189" lon="1.92887">
        <ele>61.66</ele>
        <time>2012-01-23T13:05:37Z</time>
      </trkpt>
      <trkpt lat="48.87206" lon="1.92888">
        <ele>64.07</ele>
        <time>2012-01-23T13:05:50Z</time>
      </trkpt>
      <trkpt lat="48.87228" lon="1.92892">
        <ele>65.03</ele>
        <time>2012-01-23T13:06:06Z</time>
      </trkpt>
      <trkpt lat="48.87249" lon="1.92893">
        <ele>72.72</ele>
        <time>2012-01-23T13:06:21Z</time>
      </trkpt>
      <trkpt lat="48.87264" lon="1.92894">
        <ele>75.12</ele>
        <time>2012-01-23T13:06:35Z</time>
      </trkpt>
      <trkpt lat="48.87275" lon="1.92893">
        <ele>76.08</ele>
        <time>2012-01-23T13:06:50Z</time>
      </trkpt>
      <trkpt lat="48.8729" lon="1.92894">
        <ele>76.56</ele>
        <time>2012-01-23T13:07:02Z</time>
      </trkpt>
      <trkpt lat="48.87301" lon="1.92896">
        <ele>76.56</ele>
        <time>2012-01-23T13:07:15Z</time>
      </trkpt>
      <trkpt lat="48.87304" lon="1.92895">
        <ele>76.08</ele>
        <time>2012-01-23T13:07:32Z</time>
      </trkpt>
      <trkpt lat="48.87317" lon="1.92897">
        <ele>78</ele>
        <time>2012-01-23T13:07:46Z</time>
      </trkpt>
      <trkpt lat="48.87328" lon="1.929">
        <ele>79.45</ele>
        <time>2012-01-23T13:07:58Z</time>
      </trkpt>
      <trkpt lat="48.87338" lon="1.92901">
        <ele>82.33</ele>
        <time>2012-01-23T13:08:11Z</time>
      </trkpt>
      <trkpt lat="48.87348" lon="1.92901">
        <ele>84.25</ele>
        <time>2012-01-23T13:08:22Z</time>
      </trkpt>
      <trkpt lat="48.87357" lon="1.92899">
        <ele>86.18</ele>
        <time>2012-01-23T13:08:35Z</time>
      </trkpt>
      <trkpt lat="48.87363" lon="1.92893">
        <ele>86.18</ele>
        <time>2012-01-23T13:08:42Z</time>
      </trkpt>
      <trkpt lat="48.87365" lon="1.92865">
        <ele>87.62</ele>
        <time>2012-01-23T13:08:57Z</time>
      </trkpt>
      <trkpt lat="48.87367" lon="1.92854">
        <ele>88.1</ele>
        <time>2012-01-23T13:09:15Z</time>
      </trkpt>
      <trkpt lat="48.87368" lon="1.92847">
        <ele>88.1</ele>
        <time>2012-01-23T13:09:21Z</time>
      </trkpt>
      <trkpt lat="48.87369" lon="1.92816">
        <ele>90.98</ele>
        <time>2012-01-23T13:09:35Z</time>
      </trkpt>
      <trkpt lat="48.8737" lon="1.92807">
        <ele>92.9</ele>
        <time>2012-01-23T13:09:41Z</time>
      </trkpt>
      <trkpt lat="48.87361" lon="1.92773">
        <ele>91.46</ele>
        <time>2012-01-23T13:09:56Z</time>
      </trkpt>
      <trkpt lat="48.87361" lon="1.92765">
        <ele>90.5</ele>
        <time>2012-01-23T13:10:00Z</time>
      </trkpt>
      <trkpt lat="48.87357" lon="1.92738">
        <ele>88.58</ele>
        <time>2012-01-23T13:10:14Z</time>
      </trkpt>
      <trkpt lat="48.87355" lon="1.92717">
        <ele>88.1</ele>
        <time>2012-01-23T13:10:25Z</time>
      </trkpt>
      <trkpt lat="48.87354" lon="1.92706">
        <ele>88.58</ele>
        <time>2012-01-23T13:10:30Z</time>
      </trkpt>
      <trkpt lat="48.87355" lon="1.92696">
        <ele>88.58</ele>
        <time>2012-01-23T13:10:36Z</time>
      </trkpt>
      <trkpt lat="48.87353" lon="1.92678">
        <ele>88.1</ele>
        <time>2012-01-23T13:10:51Z</time>
      </trkpt>
      <trkpt lat="48.87352" lon="1.92653">
        <ele>87.62</ele>
        <time>2012-01-23T13:11:05Z</time>
      </trkpt>
      <trkpt lat="48.87349" lon="1.92621">
        <ele>89.06</ele>
        <time>2012-01-23T13:11:20Z</time>
      </trkpt>
      <trkpt lat="48.87348" lon="1.92592">
        <ele>88.58</ele>
        <time>2012-01-23T13:11:35Z</time>
      </trkpt>
      <trkpt lat="48.87351" lon="1.92573">
        <ele>88.58</ele>
        <time>2012-01-23T13:11:49Z</time>
      </trkpt>
      <trkpt lat="48.87358" lon="1.92553">
        <ele>88.58</ele>
        <time>2012-01-23T13:12:04Z</time>
      </trkpt>
      <trkpt lat="48.87359" lon="1.92551">
        <ele>89.06</ele>
        <time>2012-01-23T13:12:06Z</time>
      </trkpt>
      <trkpt lat="48.8737" lon="1.92528">
        <ele>91.94</ele>
        <time>2012-01-23T13:12:22Z</time>
      </trkpt>
      <trkpt lat="48.87382" lon="1.92508">
        <ele>92.9</ele>
        <time>2012-01-23T13:12:37Z</time>
      </trkpt>
      <trkpt lat="48.87384" lon="1.92505">
        <ele>93.39</ele>
        <time>2012-01-23T13:12:39Z</time>
      </trkpt>
      <trkpt lat="48.87391" lon="1.92492">
        <ele>91.94</ele>
        <time>2012-01-23T13:12:48Z</time>
      </trkpt>
      <trkpt lat="48.87408" lon="1.9247">
        <ele>88.58</ele>
        <time>2012-01-23T13:13:04Z</time>
      </trkpt>
      <trkpt lat="48.87421" lon="1.92443">
        <ele>85.69</ele>
        <time>2012-01-23T13:13:20Z</time>
      </trkpt>
      <trkpt lat="48.87437" lon="1.92417">
        <ele>87.14</ele>
        <time>2012-01-23T13:13:38Z</time>
      </trkpt>
      <trkpt lat="48.87457" lon="1.92399">
        <ele>87.14</ele>
        <time>2012-01-23T13:13:55Z</time>
      </trkpt>
      <trkpt lat="48.87474" lon="1.9238">
        <ele>89.06</ele>
        <time>2012-01-23T13:14:08Z</time>
      </trkpt>
      <trkpt lat="48.87489" lon="1.92363">
        <ele>88.1</ele>
        <time>2012-01-23T13:14:25Z</time>
      </trkpt>
      <trkpt lat="48.87501" lon="1.92347">
        <ele>89.06</ele>
        <time>2012-01-23T13:14:40Z</time>
      </trkpt>
      <trkpt lat="48.87515" lon="1.92341">
        <ele>89.54</ele>
        <time>2012-01-23T13:14:55Z</time>
      </trkpt>
      <trkpt lat="48.87528" lon="1.92334">
        <ele>89.06</ele>
        <time>2012-01-23T13:15:10Z</time>
      </trkpt>
      <trkpt lat="48.87528" lon="1.92334">
        <ele>89.06</ele>
        <time>2012-01-23T13:15:36Z</time>
      </trkpt>
      <trkpt lat="48.87547" lon="1.92321">
        <ele>89.54</ele>
        <time>2012-01-23T13:15:52Z</time>
      </trkpt>
      <trkpt lat="48.87554" lon="1.92316">
        <ele>90.02</ele>
        <time>2012-01-23T13:15:58Z</time>
      </trkpt>
      <trkpt lat="48.8757" lon="1.92308">
        <ele>90.98</ele>
        <time>2012-01-23T13:16:11Z</time>
      </trkpt>
      <trkpt lat="48.87581" lon="1.92306">
        <ele>92.42</ele>
        <time>2012-01-23T13:16:24Z</time>
      </trkpt>
      <trkpt lat="48.87583" lon="1.92304">
        <ele>92.42</ele>
        <time>2012-01-23T13:16:26Z</time>
      </trkpt>
      <trkpt lat="48.87596" lon="1.92296">
        <ele>93.39</ele>
        <time>2012-01-23T13:16:39Z</time>
      </trkpt>
      <trkpt lat="48.8761" lon="1.92292">
        <ele>95.79</ele>
        <time>2012-01-23T13:16:51Z</time>
      </trkpt>
      <trkpt lat="48.87621" lon="1.92288">
        <ele>96.75</ele>
        <time>2012-01-23T13:17:04Z</time>
      </trkpt>
      <trkpt lat="48.87621" lon="1.92287">
        <ele>96.27</ele>
        <time>2012-01-23T13:17:19Z</time>
      </trkpt>
      <trkpt lat="48.87621" lon="1.92287">
        <ele>96.27</ele>
        <time>2012-01-23T13:17:44Z</time>
      </trkpt>
      <trkpt lat="48.8762" lon="1.92287">
        <ele>96.75</ele>
        <time>2012-01-23T13:18:05Z</time>
      </trkpt>
      <trkpt lat="48.87626" lon="1.92287">
        <ele>95.31</ele>
        <time>2012-01-23T13:18:18Z</time>
      </trkpt>
      <trkpt lat="48.8764" lon="1.92286">
        <ele>91.94</ele>
        <time>2012-01-23T13:18:32Z</time>
      </trkpt>
      <trkpt lat="48.8765" lon="1.92286">
        <ele>91.46</ele>
        <time>2012-01-23T13:18:44Z</time>
      </trkpt>
      <trkpt lat="48.8766" lon="1.92285">
        <ele>92.42</ele>
        <time>2012-01-23T13:19:00Z</time>
      </trkpt>
      <trkpt lat="48.87675" lon="1.9228">
        <ele>95.31</ele>
        <time>2012-01-23T13:19:12Z</time>
      </trkpt>
      <trkpt lat="48.87695" lon="1.92275">
        <ele>95.79</ele>
        <time>2012-01-23T13:19:27Z</time>
      </trkpt>
      <trkpt lat="48.87715" lon="1.92274">
        <ele>95.31</ele>
        <time>2012-01-23T13:19:42Z</time>
      </trkpt>
      <trkpt lat="48.87736" lon="1.92276">
        <ele>94.35</ele>
        <time>2012-01-23T13:19:56Z</time>
      </trkpt>
      <trkpt lat="48.8776" lon="1.92284">
        <ele>92.9</ele>
        <time>2012-01-23T13:20:14Z</time>
      </trkpt>
      <trkpt lat="48.8778" lon="1.92291">
        <ele>93.39</ele>
        <time>2012-01-23T13:20:29Z</time>
      </trkpt>
      <trkpt lat="48.87798" lon="1.92298">
        <ele>94.83</ele>
        <time>2012-01-23T13:20:44Z</time>
      </trkpt>
      <trkpt lat="48.87818" lon="1.92307">
        <ele>93.87</ele>
        <time>2012-01-23T13:20:59Z</time>
      </trkpt>
      <trkpt lat="48.87838" lon="1.92314">
        <ele>94.35</ele>
        <time>2012-01-23T13:21:14Z</time>
      </trkpt>
      <trkpt lat="48.87855" lon="1.92322">
        <ele>94.83</ele>
        <time>2012-01-23T13:21:28Z</time>
      </trkpt>
      <trkpt lat="48.87876" lon="1.92335">
        <ele>92.42</ele>
        <time>2012-01-23T13:21:44Z</time>
      </trkpt>
      <trkpt lat="48.87891" lon="1.92347">
        <ele>88.1</ele>
        <time>2012-01-23T13:21:57Z</time>
      </trkpt>
      <trkpt lat="48.87902" lon="1.92359">
        <ele>87.62</ele>
        <time>2012-01-23T13:22:06Z</time>
      </trkpt>
      <trkpt lat="48.87922" lon="1.92371">
        <ele>84.73</ele>
        <time>2012-01-23T13:22:22Z</time>
      </trkpt>
      <trkpt lat="48.87942" lon="1.92387">
        <ele>82.81</ele>
        <time>2012-01-23T13:22:39Z</time>
      </trkpt>
      <trkpt lat="48.87962" lon="1.924">
        <ele>81.37</ele>
        <time>2012-01-23T13:22:55Z</time>
      </trkpt>
      <trkpt lat="48.87966" lon="1.92402">
        <ele>81.85</ele>
        <time>2012-01-23T13:23:05Z</time>
      </trkpt>
      <trkpt lat="48.87981" lon="1.92422">
        <ele>80.41</ele>
        <time>2012-01-23T13:23:20Z</time>
      </trkpt>
      <trkpt lat="48.88001" lon="1.92427">
        <ele>79.45</ele>
        <time>2012-01-23T13:23:35Z</time>
      </trkpt>
      <trkpt lat="48.8802" lon="1.92411">
        <ele>78.97</ele>
        <time>2012-01-23T13:23:51Z</time>
      </trkpt>
      <trkpt lat="48.88038" lon="1.92396">
        <ele>77.04</ele>
        <time>2012-01-23T13:24:07Z</time>
      </trkpt>
      <trkpt lat="48.88041" lon="1.92395">
        <ele>77.04</ele>
        <time>2012-01-23T13:24:12Z</time>
      </trkpt>
      <trkpt lat="48.8805" lon="1.92408">
        <ele>76.08</ele>
        <time>2012-01-23T13:24:22Z</time>
      </trkpt>
      <trkpt lat="48.88071" lon="1.92411">
        <ele>75.12</ele>
        <time>2012-01-23T13:24:38Z</time>
      </trkpt>
      <trkpt lat="48.88089" lon="1.92402">
        <ele>77.52</ele>
        <time>2012-01-23T13:24:53Z</time>
      </trkpt>
      <trkpt lat="48.88098" lon="1.92399">
        <ele>81.85</ele>
        <time>2012-01-23T13:25:01Z</time>
      </trkpt>
      <trkpt lat="48.88106" lon="1.92405">
        <ele>84.25</ele>
        <time>2012-01-23T13:25:08Z</time>
      </trkpt>
      <trkpt lat="48.88125" lon="1.92421">
        <ele>87.62</ele>
        <time>2012-01-23T13:25:24Z</time>
      </trkpt>
      <trkpt lat="48.88132" lon="1.92423">
        <ele>88.1</ele>
        <time>2012-01-23T13:25:29Z</time>
      </trkpt>
      <trkpt lat="48.88136" lon="1.92419">
        <ele>89.06</ele>
        <time>2012-01-23T13:25:33Z</time>
      </trkpt>
      <trkpt lat="48.88144" lon="1.92406">
        <ele>91.94</ele>
        <time>2012-01-23T13:25:43Z</time>
      </trkpt>
      <trkpt lat="48.88149" lon="1.92402">
        <ele>92.42</ele>
        <time>2012-01-23T13:25:56Z</time>
      </trkpt>
      <trkpt lat="48.88149" lon="1.92402">
        <ele>92.42</ele>
        <time>2012-01-23T13:26:26Z</time>
      </trkpt>
      <trkpt lat="48.88149" lon="1.92402">
        <ele>92.42</ele>
        <time>2012-01-23T13:27:00Z</time>
      </trkpt>
      <trkpt lat="48.88149" lon="1.92402">
        <ele>92.42</ele>
        <time>2012-01-23T13:27:24Z</time>
      </trkpt>
      <trkpt lat="48.88149" lon="1.92402">
        <ele>92.42</ele>
        <time>2012-01-23T13:27:51Z</time>
      </trkpt>
      <trkpt lat="48.88153" lon="1.92404">
        <ele>93.39</ele>
        <time>2012-01-23T13:28:18Z</time>
      </trkpt>
      <trkpt lat="48.88153" lon="1.92404">
        <ele>93.39</ele>
        <time>2012-01-23T13:28:48Z</time>
      </trkpt>
      <trkpt lat="48.88152" lon="1.92408">
        <ele>93.87</ele>
        <time>2012-01-23T13:28:59Z</time>
      </trkpt>
      <trkpt lat="48.88154" lon="1.92407">
        <ele>93.39</ele>
        <time>2012-01-23T13:29:03Z</time>
      </trkpt>
      <trkpt lat="48.88155" lon="1.92404">
        <ele>93.39</ele>
        <time>2012-01-23T13:29:05Z</time>
      </trkpt>
      <trkpt lat="48.88159" lon="1.92397">
        <ele>91.94</ele>
        <time>2012-01-23T13:29:20Z</time>
      </trkpt>
      <trkpt lat="48.88162" lon="1.92399">
        <ele>91.46</ele>
        <time>2012-01-23T13:29:25Z</time>
      </trkpt>
      <trkpt lat="48.88167" lon="1.92401">
        <ele>90.98</ele>
        <time>2012-01-23T13:29:28Z</time>
      </trkpt>
      <trkpt lat="48.88169" lon="1.92404">
        <ele>90.5</ele>
        <time>2012-01-23T13:29:30Z</time>
      </trkpt>
      <trkpt lat="48.88168" lon="1.92415">
        <ele>90.02</ele>
        <time>2012-01-23T13:29:46Z</time>
      </trkpt>
      <trkpt lat="48.88169" lon="1.92415">
        <ele>89.54</ele>
        <time>2012-01-23T13:29:48Z</time>
      </trkpt>
      <trkpt lat="48.88173" lon="1.92417">
        <ele>89.06</ele>
        <time>2012-01-23T13:29:52Z</time>
      </trkpt>
      <trkpt lat="48.88175" lon="1.92421">
        <ele>88.1</ele>
        <time>2012-01-23T13:29:55Z</time>
      </trkpt>
      <trkpt lat="48.88172" lon="1.92418">
        <ele>88.1</ele>
        <time>2012-01-23T13:29:59Z</time>
      </trkpt>
      <trkpt lat="48.88168" lon="1.92414">
        <ele>88.1</ele>
        <time>2012-01-23T13:30:13Z</time>
      </trkpt>
      <trkpt lat="48.88168" lon="1.92414">
        <ele>88.1</ele>
        <time>2012-01-23T13:30:39Z</time>
      </trkpt>
      <trkpt lat="48.88168" lon="1.92414">
        <ele>88.1</ele>
        <time>2012-01-23T13:30:41Z</time>
      </trkpt>
      <trkpt lat="48.88177" lon="1.92425">
        <ele>87.62</ele>
        <time>2012-01-23T13:30:49Z</time>
      </trkpt>
      <trkpt lat="48.8818" lon="1.92457">
        <ele>87.14</ele>
        <time>2012-01-23T13:31:04Z</time>
      </trkpt>
      <trkpt lat="48.88179" lon="1.9249">
        <ele>83.29</ele>
        <time>2012-01-23T13:31:19Z</time>
      </trkpt>
      <trkpt lat="48.88185" lon="1.92519">
        <ele>78</ele>
        <time>2012-01-23T13:31:34Z</time>
      </trkpt>
      <trkpt lat="48.88192" lon="1.92532">
        <ele>77.52</ele>
        <time>2012-01-23T13:31:41Z</time>
      </trkpt>
      <trkpt lat="48.88199" lon="1.92548">
        <ele>78</ele>
        <time>2012-01-23T13:31:50Z</time>
      </trkpt>
      <trkpt lat="48.88209" lon="1.92566">
        <ele>81.37</ele>
        <time>2012-01-23T13:32:07Z</time>
      </trkpt>
      <trkpt lat="48.88209" lon="1.92566">
        <ele>81.37</ele>
        <time>2012-01-23T13:32:19Z</time>
      </trkpt>
      <trkpt lat="48.88206" lon="1.92593">
        <ele>83.29</ele>
        <time>2012-01-23T13:32:31Z</time>
      </trkpt>
      <trkpt lat="48.88211" lon="1.92628">
        <ele>83.77</ele>
        <time>2012-01-23T13:32:48Z</time>
      </trkpt>
      <trkpt lat="48.88213" lon="1.92635">
        <ele>84.25</ele>
        <time>2012-01-23T13:32:55Z</time>
      </trkpt>
      <trkpt lat="48.88212" lon="1.92639">
        <ele>84.73</ele>
        <time>2012-01-23T13:32:58Z</time>
      </trkpt>
      <trkpt lat="48.88213" lon="1.92649">
        <ele>85.21</ele>
        <time>2012-01-23T13:33:03Z</time>
      </trkpt>
      <trkpt lat="48.88218" lon="1.92679">
        <ele>85.21</ele>
        <time>2012-01-23T13:33:18Z</time>
      </trkpt>
      <trkpt lat="48.88225" lon="1.92694">
        <ele>87.14</ele>
        <time>2012-01-23T13:33:31Z</time>
      </trkpt>
      <trkpt lat="48.88225" lon="1.92694">
        <ele>87.14</ele>
        <time>2012-01-23T13:33:52Z</time>
      </trkpt>
      <trkpt lat="48.88226" lon="1.92712">
        <ele>87.14</ele>
        <time>2012-01-23T13:34:07Z</time>
      </trkpt>
      <trkpt lat="48.88234" lon="1.92734">
        <ele>87.14</ele>
        <time>2012-01-23T13:34:19Z</time>
      </trkpt>
      <trkpt lat="48.88249" lon="1.92749">
        <ele>86.66</ele>
        <time>2012-01-23T13:34:34Z</time>
      </trkpt>
      <trkpt lat="48.88262" lon="1.92764">
        <ele>87.62</ele>
        <time>2012-01-23T13:34:47Z</time>
      </trkpt>
      <trkpt lat="48.88275" lon="1.92779">
        <ele>89.06</ele>
        <time>2012-01-23T13:35:02Z</time>
      </trkpt>
      <trkpt lat="48.88282" lon="1.92795">
        <ele>90.02</ele>
        <time>2012-01-23T13:35:14Z</time>
      </trkpt>
      <trkpt lat="48.88285" lon="1.92802">
        <ele>90.5</ele>
        <time>2012-01-23T13:35:19Z</time>
      </trkpt>
      <trkpt lat="48.88288" lon="1.92812">
        <ele>92.9</ele>
        <time>2012-01-23T13:35:25Z</time>
      </trkpt>
      <trkpt lat="48.88295" lon="1.92835">
        <ele>96.75</ele>
        <time>2012-01-23T13:35:38Z</time>
      </trkpt>
      <trkpt lat="48.88297" lon="1.9285">
        <ele>96.75</ele>
        <time>2012-01-23T13:35:47Z</time>
      </trkpt>
      <trkpt lat="48.883" lon="1.9287">
        <ele>97.71</ele>
        <time>2012-01-23T13:35:57Z</time>
      </trkpt>
      <trkpt lat="48.883" lon="1.92882">
        <ele>97.71</ele>
        <time>2012-01-23T13:36:04Z</time>
      </trkpt>
      <trkpt lat="48.88303" lon="1.92899">
        <ele>97.71</ele>
        <time>2012-01-23T13:36:12Z</time>
      </trkpt>
      <trkpt lat="48.88305" lon="1.92914">
        <ele>97.71</ele>
        <time>2012-01-23T13:36:20Z</time>
      </trkpt>
      <trkpt lat="48.88306" lon="1.92927">
        <ele>96.75</ele>
        <time>2012-01-23T13:36:35Z</time>
      </trkpt>
      <trkpt lat="48.88306" lon="1.92934">
        <ele>97.23</ele>
        <time>2012-01-23T13:36:40Z</time>
      </trkpt>
      <trkpt lat="48.88307" lon="1.92939">
        <ele>96.75</ele>
        <time>2012-01-23T13:36:42Z</time>
      </trkpt>
      <trkpt lat="48.88316" lon="1.92965">
        <ele>97.71</ele>
        <time>2012-01-23T13:36:57Z</time>
      </trkpt>
      <trkpt lat="48.88324" lon="1.92995">
        <ele>98.19</ele>
        <time>2012-01-23T13:37:13Z</time>
      </trkpt>
      <trkpt lat="48.88334" lon="1.93023">
        <ele>100.11</ele>
        <time>2012-01-23T13:37:28Z</time>
      </trkpt>
      <trkpt lat="48.88345" lon="1.93057">
        <ele>105.88</ele>
        <time>2012-01-23T13:37:47Z</time>
      </trkpt>
      <trkpt lat="48.88358" lon="1.93093">
        <ele>108.29</ele>
        <time>2012-01-23T13:38:07Z</time>
      </trkpt>
      <trkpt lat="48.88367" lon="1.93115">
        <ele>108.77</ele>
        <time>2012-01-23T13:38:21Z</time>
      </trkpt>
      <trkpt lat="48.8837" lon="1.93111">
        <ele>108.77</ele>
        <time>2012-01-23T13:38:38Z</time>
      </trkpt>
      <trkpt lat="48.8838" lon="1.9309">
        <ele>110.21</ele>
        <time>2012-01-23T13:38:53Z</time>
      </trkpt>
      <trkpt lat="48.88392" lon="1.93063">
        <ele>110.69</ele>
        <time>2012-01-23T13:39:07Z</time>
      </trkpt>
      <trkpt lat="48.88401" lon="1.93046">
        <ele>113.57</ele>
        <time>2012-01-23T13:39:22Z</time>
      </trkpt>
      <trkpt lat="48.88401" lon="1.93048">
        <ele>113.57</ele>
        <time>2012-01-23T13:39:41Z</time>
      </trkpt>
      <trkpt lat="48.88404" lon="1.93074">
        <ele>112.13</ele>
        <time>2012-01-23T13:39:54Z</time>
      </trkpt>
      <trkpt lat="48.88419" lon="1.93087">
        <ele>110.69</ele>
        <time>2012-01-23T13:40:08Z</time>
      </trkpt>
      <trkpt lat="48.88429" lon="1.93094">
        <ele>109.25</ele>
        <time>2012-01-23T13:40:18Z</time>
      </trkpt>
      <trkpt lat="48.88448" lon="1.93106">
        <ele>107.81</ele>
        <time>2012-01-23T13:40:33Z</time>
      </trkpt>
      <trkpt lat="48.88467" lon="1.93116">
        <ele>107.81</ele>
        <time>2012-01-23T13:40:50Z</time>
      </trkpt>
      <trkpt lat="48.88472" lon="1.9312">
        <ele>107.32</ele>
        <time>2012-01-23T13:41:13Z</time>
      </trkpt>
      <trkpt lat="48.88477" lon="1.93126">
        <ele>107.81</ele>
        <time>2012-01-23T13:41:18Z</time>
      </trkpt>
      <trkpt lat="48.88484" lon="1.93131">
        <ele>108.77</ele>
        <time>2012-01-23T13:41:24Z</time>
      </trkpt>
      <trkpt lat="48.88493" lon="1.93135">
        <ele>108.77</ele>
        <time>2012-01-23T13:41:31Z</time>
      </trkpt>
      <trkpt lat="48.88498" lon="1.93137">
        <ele>108.77</ele>
        <time>2012-01-23T13:41:35Z</time>
      </trkpt>
      <trkpt lat="48.88515" lon="1.93148">
        <ele>108.29</ele>
        <time>2012-01-23T13:41:50Z</time>
      </trkpt>
      <trkpt lat="48.88524" lon="1.93155">
        <ele>108.29</ele>
        <time>2012-01-23T13:41:58Z</time>
      </trkpt>
      <trkpt lat="48.88542" lon="1.93168">
        <ele>107.81</ele>
        <time>2012-01-23T13:42:13Z</time>
      </trkpt>
      <trkpt lat="48.88566" lon="1.93185">
        <ele>108.77</ele>
        <time>2012-01-23T13:42:32Z</time>
      </trkpt>
      <trkpt lat="48.88579" lon="1.93205">
        <ele>109.73</ele>
        <time>2012-01-23T13:42:47Z</time>
      </trkpt>
      <trkpt lat="48.88594" lon="1.93226">
        <ele>110.21</ele>
        <time>2012-01-23T13:43:02Z</time>
      </trkpt>
      <trkpt lat="48.88607" lon="1.93249">
        <ele>110.69</ele>
        <time>2012-01-23T13:43:18Z</time>
      </trkpt>
      <trkpt lat="48.88615" lon="1.93264">
        <ele>111.17</ele>
        <time>2012-01-23T13:43:28Z</time>
      </trkpt>
      <trkpt lat="48.88628" lon="1.93282">
        <ele>110.21</ele>
        <time>2012-01-23T13:43:43Z</time>
      </trkpt>
      <trkpt lat="48.88639" lon="1.933">
        <ele>110.69</ele>
        <time>2012-01-23T13:43:57Z</time>
      </trkpt>
      <trkpt lat="48.8865" lon="1.93317">
        <ele>111.65</ele>
        <time>2012-01-23T13:44:13Z</time>
      </trkpt>
      <trkpt lat="48.88661" lon="1.93334">
        <ele>113.57</ele>
        <time>2012-01-23T13:44:27Z</time>
      </trkpt>
      <trkpt lat="48.8867" lon="1.9335">
        <ele>114.05</ele>
        <time>2012-01-23T13:44:42Z</time>
      </trkpt>
      <trkpt lat="48.88675" lon="1.93362">
        <ele>115.01</ele>
        <time>2012-01-23T13:44:51Z</time>
      </trkpt>
      <trkpt lat="48.88682" lon="1.93375">
        <ele>114.53</ele>
        <time>2012-01-23T13:45:01Z</time>
      </trkpt>
      <trkpt lat="48.88697" lon="1.93398">
        <ele>114.05</ele>
        <time>2012-01-23T13:45:19Z</time>
      </trkpt>
      <trkpt lat="48.88709" lon="1.93418">
        <ele>115.01</ele>
        <time>2012-01-23T13:45:33Z</time>
      </trkpt>
      <trkpt lat="48.88719" lon="1.93437">
        <ele>115.5</ele>
        <time>2012-01-23T13:45:47Z</time>
      </trkpt>
      <trkpt lat="48.88732" lon="1.93457">
        <ele>116.94</ele>
        <time>2012-01-23T13:46:02Z</time>
      </trkpt>
      <trkpt lat="48.88747" lon="1.9348">
        <ele>117.9</ele>
        <time>2012-01-23T13:46:18Z</time>
      </trkpt>
      <trkpt lat="48.88752" lon="1.9349">
        <ele>118.86</ele>
        <time>2012-01-23T13:46:25Z</time>
      </trkpt>
      <trkpt lat="48.88765" lon="1.9351">
        <ele>120.3</ele>
        <time>2012-01-23T13:46:40Z</time>
      </trkpt>
      <trkpt lat="48.88778" lon="1.9353">
        <ele>121.26</ele>
        <time>2012-01-23T13:46:55Z</time>
      </trkpt>
      <trkpt lat="48.88793" lon="1.93554">
        <ele>123.19</ele>
        <time>2012-01-23T13:47:12Z</time>
      </trkpt>
      <trkpt lat="48.88805" lon="1.93576">
        <ele>123.67</ele>
        <time>2012-01-23T13:47:28Z</time>
      </trkpt>
      <trkpt lat="48.88817" lon="1.93597">
        <ele>123.67</ele>
        <time>2012-01-23T13:47:44Z</time>
      </trkpt>
      <trkpt lat="48.88827" lon="1.93614">
        <ele>125.11</ele>
        <time>2012-01-23T13:48:00Z</time>
      </trkpt>
      <trkpt lat="48.88825" lon="1.93611">
        <ele>125.59</ele>
        <time>2012-01-23T13:48:13Z</time>
      </trkpt>
      <trkpt lat="48.88829" lon="1.93615">
        <ele>125.59</ele>
        <time>2012-01-23T13:48:20Z</time>
      </trkpt>
      <trkpt lat="48.8884" lon="1.93631">
        <ele>126.07</ele>
        <time>2012-01-23T13:48:35Z</time>
      </trkpt>
      <trkpt lat="48.88851" lon="1.93647">
        <ele>123.67</ele>
        <time>2012-01-23T13:48:48Z</time>
      </trkpt>
      <trkpt lat="48.88859" lon="1.93666">
        <ele>121.74</ele>
        <time>2012-01-23T13:49:00Z</time>
      </trkpt>
      <trkpt lat="48.88873" lon="1.93691">
        <ele>117.9</ele>
        <time>2012-01-23T13:49:17Z</time>
      </trkpt>
      <trkpt lat="48.88882" lon="1.93709">
        <ele>115.98</ele>
        <time>2012-01-23T13:49:31Z</time>
      </trkpt>
      <trkpt lat="48.8889" lon="1.93731">
        <ele>116.94</ele>
        <time>2012-01-23T13:49:46Z</time>
      </trkpt>
      <trkpt lat="48.88899" lon="1.93747">
        <ele>116.46</ele>
        <time>2012-01-23T13:49:59Z</time>
      </trkpt>
      <trkpt lat="48.88908" lon="1.93761">
        <ele>117.42</ele>
        <time>2012-01-23T13:50:11Z</time>
      </trkpt>
      <trkpt lat="48.88916" lon="1.93779">
        <ele>120.78</ele>
        <time>2012-01-23T13:50:25Z</time>
      </trkpt>
      <trkpt lat="48.88917" lon="1.93794">
        <ele>123.19</ele>
        <time>2012-01-23T13:50:35Z</time>
      </trkpt>
      <trkpt lat="48.88921" lon="1.93819">
        <ele>128.95</ele>
        <time>2012-01-23T13:50:52Z</time>
      </trkpt>
      <trkpt lat="48.88922" lon="1.93842">
        <ele>137.13</ele>
        <time>2012-01-23T13:51:04Z</time>
      </trkpt>
      <trkpt lat="48.88925" lon="1.93859">
        <ele>137.13</ele>
        <time>2012-01-23T13:51:16Z</time>
      </trkpt>
      <trkpt lat="48.88925" lon="1.93861">
        <ele>137.61</ele>
        <time>2012-01-23T13:51:18Z</time>
      </trkpt>
      <trkpt lat="48.88934" lon="1.93884">
        <ele>141.45</ele>
        <time>2012-01-23T13:51:33Z</time>
      </trkpt>
      <trkpt lat="48.88937" lon="1.93898">
        <ele>140.97</ele>
        <time>2012-01-23T13:51:43Z</time>
      </trkpt>
      <trkpt lat="48.88943" lon="1.93917">
        <ele>141.93</ele>
        <time>2012-01-23T13:51:57Z</time>
      </trkpt>
      <trkpt lat="48.88947" lon="1.9394">
        <ele>145.3</ele>
        <time>2012-01-23T13:52:10Z</time>
      </trkpt>
      <trkpt lat="48.88952" lon="1.93957">
        <ele>144.34</ele>
        <time>2012-01-23T13:52:24Z</time>
      </trkpt>
      <trkpt lat="48.88954" lon="1.93977">
        <ele>144.82</ele>
        <time>2012-01-23T13:52:38Z</time>
      </trkpt>
      <trkpt lat="48.88959" lon="1.93998">
        <ele>145.3</ele>
        <time>2012-01-23T13:52:54Z</time>
      </trkpt>
      <trkpt lat="48.88961" lon="1.94001">
        <ele>145.3</ele>
        <time>2012-01-23T13:52:56Z</time>
      </trkpt>
      <trkpt lat="48.88967" lon="1.94016">
        <ele>142.89</ele>
        <time>2012-01-23T13:53:09Z</time>
      </trkpt>
      <trkpt lat="48.88969" lon="1.94023">
        <ele>143.85</ele>
        <time>2012-01-23T13:53:13Z</time>
      </trkpt>
      <trkpt lat="48.88978" lon="1.94044">
        <ele>142.41</ele>
        <time>2012-01-23T13:53:26Z</time>
      </trkpt>
      <trkpt lat="48.88987" lon="1.94063">
        <ele>141.93</ele>
        <time>2012-01-23T13:53:41Z</time>
      </trkpt>
      <trkpt lat="48.88998" lon="1.94084">
        <ele>140.01</ele>
        <time>2012-01-23T13:53:56Z</time>
      </trkpt>
      <trkpt lat="48.89008" lon="1.94097">
        <ele>141.45</ele>
        <time>2012-01-23T13:54:09Z</time>
      </trkpt>
      <trkpt lat="48.89015" lon="1.94109">
        <ele>145.3</ele>
        <time>2012-01-23T13:54:23Z</time>
      </trkpt>
      <trkpt lat="48.8902" lon="1.94116">
        <ele>146.74</ele>
        <time>2012-01-23T13:54:40Z</time>
      </trkpt>
      <trkpt lat="48.89023" lon="1.9412">
        <ele>147.22</ele>
        <time>2012-01-23T13:55:01Z</time>
      </trkpt>
      <trkpt lat="48.89036" lon="1.94135">
        <ele>148.66</ele>
        <time>2012-01-23T13:55:16Z</time>
      </trkpt>
      <trkpt lat="48.89041" lon="1.94139">
        <ele>149.14</ele>
        <time>2012-01-23T13:55:20Z</time>
      </trkpt>
      <trkpt lat="48.8906" lon="1.94154">
        <ele>153.47</ele>
        <time>2012-01-23T13:55:35Z</time>
      </trkpt>
      <trkpt lat="48.89062" lon="1.94157">
        <ele>153.95</ele>
        <time>2012-01-23T13:55:38Z</time>
      </trkpt>
      <trkpt lat="48.89075" lon="1.94169">
        <ele>155.87</ele>
        <time>2012-01-23T13:55:51Z</time>
      </trkpt>
      <trkpt lat="48.89086" lon="1.94181">
        <ele>156.35</ele>
        <time>2012-01-23T13:56:03Z</time>
      </trkpt>
      <trkpt lat="48.89091" lon="1.9419">
        <ele>157.79</ele>
        <time>2012-01-23T13:56:10Z</time>
      </trkpt>
      <trkpt lat="48.89096" lon="1.94199">
        <ele>158.75</ele>
        <time>2012-01-23T13:56:16Z</time>
      </trkpt>
      <trkpt lat="48.89108" lon="1.94228">
        <ele>159.72</ele>
        <time>2012-01-23T13:56:33Z</time>
      </trkpt>
      <trkpt lat="48.89114" lon="1.94259">
        <ele>159.72</ele>
        <time>2012-01-23T13:56:51Z</time>
      </trkpt>
      <trkpt lat="48.89122" lon="1.94283">
        <ele>161.16</ele>
        <time>2012-01-23T13:57:06Z</time>
      </trkpt>
      <trkpt lat="48.89126" lon="1.94296">
        <ele>161.16</ele>
        <time>2012-01-23T13:57:15Z</time>
      </trkpt>
      <trkpt lat="48.89134" lon="1.9431">
        <ele>163.08</ele>
        <time>2012-01-23T13:57:30Z</time>
      </trkpt>
      <trkpt lat="48.89134" lon="1.9431">
        <ele>163.08</ele>
        <time>2012-01-23T13:57:32Z</time>
      </trkpt>
      <trkpt lat="48.89143" lon="1.94313">
        <ele>164.52</ele>
        <time>2012-01-23T13:57:39Z</time>
      </trkpt>
      <trkpt lat="48.89158" lon="1.9431">
        <ele>165</ele>
        <time>2012-01-23T13:57:53Z</time>
      </trkpt>
      <trkpt lat="48.89159" lon="1.94308">
        <ele>164.52</ele>
        <time>2012-01-23T13:58:10Z</time>
      </trkpt>
      <trkpt lat="48.89166" lon="1.94304">
        <ele>164.52</ele>
        <time>2012-01-23T13:58:33Z</time>
      </trkpt>
      <trkpt lat="48.89182" lon="1.94287">
        <ele>166.93</ele>
        <time>2012-01-23T13:58:46Z</time>
      </trkpt>
      <trkpt lat="48.89185" lon="1.94283">
        <ele>167.41</ele>
        <time>2012-01-23T13:58:49Z</time>
      </trkpt>
      <trkpt lat="48.89187" lon="1.9428">
        <ele>167.41</ele>
        <time>2012-01-23T13:58:51Z</time>
      </trkpt>
      <trkpt lat="48.892" lon="1.94254">
        <ele>167.89</ele>
        <time>2012-01-23T13:59:06Z</time>
      </trkpt>
      <trkpt lat="48.89208" lon="1.94238">
        <ele>169.81</ele>
        <time>2012-01-23T13:59:15Z</time>
      </trkpt>
      <trkpt lat="48.89222" lon="1.94221">
        <ele>169.33</ele>
        <time>2012-01-23T13:59:30Z</time>
      </trkpt>
      <trkpt lat="48.89224" lon="1.94219">
        <ele>169.81</ele>
        <time>2012-01-23T13:59:32Z</time>
      </trkpt>
      <trkpt lat="48.89236" lon="1.94194">
        <ele>170.77</ele>
        <time>2012-01-23T13:59:45Z</time>
      </trkpt>
      <trkpt lat="48.89238" lon="1.94192">
        <ele>170.29</ele>
        <time>2012-01-23T13:59:48Z</time>
      </trkpt>
      <trkpt lat="48.89242" lon="1.94186">
        <ele>170.29</ele>
        <time>2012-01-23T13:59:52Z</time>
      </trkpt>
      <trkpt lat="48.89245" lon="1.9418">
        <ele>170.29</ele>
        <time>2012-01-23T13:59:56Z</time>
      </trkpt>
      <trkpt lat="48.8925" lon="1.94172">
        <ele>170.77</ele>
        <time>2012-01-23T14:00:01Z</time>
      </trkpt>
      <trkpt lat="48.89255" lon="1.94164">
        <ele>171.25</ele>
        <time>2012-01-23T14:00:07Z</time>
      </trkpt>
      <trkpt lat="48.89261" lon="1.94155">
        <ele>171.25</ele>
        <time>2012-01-23T14:00:14Z</time>
      </trkpt>
      <trkpt lat="48.89264" lon="1.94152">
        <ele>170.77</ele>
        <time>2012-01-23T14:00:17Z</time>
      </trkpt>
      <trkpt lat="48.89268" lon="1.94144">
        <ele>170.77</ele>
        <time>2012-01-23T14:00:21Z</time>
      </trkpt>
      <trkpt lat="48.89269" lon="1.94139">
        <ele>170.77</ele>
        <time>2012-01-23T14:00:23Z</time>
      </trkpt>
      <trkpt lat="48.89282" lon="1.94119">
        <ele>169.33</ele>
        <time>2012-01-23T14:00:36Z</time>
      </trkpt>
      <trkpt lat="48.89295" lon="1.94097">
        <ele>170.77</ele>
        <time>2012-01-23T14:00:49Z</time>
      </trkpt>
      <trkpt lat="48.89301" lon="1.94083">
        <ele>169.81</ele>
        <time>2012-01-23T14:00:58Z</time>
      </trkpt>
      <trkpt lat="48.89313" lon="1.94064">
        <ele>167.89</ele>
        <time>2012-01-23T14:01:12Z</time>
      </trkpt>
      <trkpt lat="48.89326" lon="1.94046">
        <ele>168.37</ele>
        <time>2012-01-23T14:01:25Z</time>
      </trkpt>
      <trkpt lat="48.8933" lon="1.94041">
        <ele>168.37</ele>
        <time>2012-01-23T14:01:29Z</time>
      </trkpt>
      <trkpt lat="48.89336" lon="1.94031">
        <ele>167.89</ele>
        <time>2012-01-23T14:01:36Z</time>
      </trkpt>
      <trkpt lat="48.89343" lon="1.94011">
        <ele>165.48</ele>
        <time>2012-01-23T14:01:46Z</time>
      </trkpt>
      <trkpt lat="48.89347" lon="1.94004">
        <ele>165.48</ele>
        <time>2012-01-23T14:01:49Z</time>
      </trkpt>
      <trkpt lat="48.8936" lon="1.93982">
        <ele>164.04</ele>
        <time>2012-01-23T14:02:04Z</time>
      </trkpt>
      <trkpt lat="48.8937" lon="1.93965">
        <ele>165.48</ele>
        <time>2012-01-23T14:02:14Z</time>
      </trkpt>
      <trkpt lat="48.89376" lon="1.93952">
        <ele>166.45</ele>
        <time>2012-01-23T14:02:22Z</time>
      </trkpt>
      <trkpt lat="48.89387" lon="1.93933">
        <ele>168.37</ele>
        <time>2012-01-23T14:02:35Z</time>
      </trkpt>
      <trkpt lat="48.89394" lon="1.93921">
        <ele>168.37</ele>
        <time>2012-01-23T14:02:49Z</time>
      </trkpt>
      <trkpt lat="48.89399" lon="1.9391">
        <ele>169.81</ele>
        <time>2012-01-23T14:02:55Z</time>
      </trkpt>
      <trkpt lat="48.89415" lon="1.93879">
        <ele>175.58</ele>
        <time>2012-01-23T14:03:11Z</time>
      </trkpt>
      <trkpt lat="48.89419" lon="1.93857">
        <ele>174.62</ele>
        <time>2012-01-23T14:03:24Z</time>
      </trkpt>
      <trkpt lat="48.89418" lon="1.93852">
        <ele>174.62</ele>
        <time>2012-01-23T14:03:27Z</time>
      </trkpt>
      <trkpt lat="48.89414" lon="1.93833">
        <ele>175.1</ele>
        <time>2012-01-23T14:03:38Z</time>
      </trkpt>
      <trkpt lat="48.89413" lon="1.93822">
        <ele>174.14</ele>
        <time>2012-01-23T14:03:45Z</time>
      </trkpt>
      <trkpt lat="48.89409" lon="1.93806">
        <ele>174.14</ele>
        <time>2012-01-23T14:03:50Z</time>
      </trkpt>
      <trkpt lat="48.89407" lon="1.93786">
        <ele>177.5</ele>
        <time>2012-01-23T14:03:59Z</time>
      </trkpt>
      <trkpt lat="48.8941" lon="1.93778">
        <ele>177.02</ele>
        <time>2012-01-23T14:04:04Z</time>
      </trkpt>
      <trkpt lat="48.89418" lon="1.93755">
        <ele>177.98</ele>
        <time>2012-01-23T14:04:16Z</time>
      </trkpt>
      <trkpt lat="48.89421" lon="1.93748">
        <ele>177.5</ele>
        <time>2012-01-23T14:04:20Z</time>
      </trkpt>
      <trkpt lat="48.89427" lon="1.93735">
        <ele>177.02</ele>
        <time>2012-01-23T14:04:29Z</time>
      </trkpt>
      <trkpt lat="48.89431" lon="1.93729">
        <ele>177.02</ele>
        <time>2012-01-23T14:04:34Z</time>
      </trkpt>
      <trkpt lat="48.89435" lon="1.93714">
        <ele>177.98</ele>
        <time>2012-01-23T14:04:41Z</time>
      </trkpt>
      <trkpt lat="48.89444" lon="1.93692">
        <ele>179.42</ele>
        <time>2012-01-23T14:04:54Z</time>
      </trkpt>
      <trkpt lat="48.89453" lon="1.93681">
        <ele>178.46</ele>
        <time>2012-01-23T14:05:04Z</time>
      </trkpt>
      <trkpt lat="48.89462" lon="1.93663">
        <ele>177.5</ele>
        <time>2012-01-23T14:05:16Z</time>
      </trkpt>
      <trkpt lat="48.89462" lon="1.9366">
        <ele>177.5</ele>
        <time>2012-01-23T14:05:18Z</time>
      </trkpt>
      <trkpt lat="48.89468" lon="1.93655">
        <ele>176.54</ele>
        <time>2012-01-23T14:05:23Z</time>
      </trkpt>
      <trkpt lat="48.89485" lon="1.93648">
        <ele>175.1</ele>
        <time>2012-01-23T14:05:38Z</time>
      </trkpt>
      <trkpt lat="48.89503" lon="1.93647">
        <ele>173.66</ele>
        <time>2012-01-23T14:05:52Z</time>
      </trkpt>
      <trkpt lat="48.89528" lon="1.93646">
        <ele>177.02</ele>
        <time>2012-01-23T14:06:08Z</time>
      </trkpt>
      <trkpt lat="48.89534" lon="1.93647">
        <ele>177.5</ele>
        <time>2012-01-23T14:06:13Z</time>
      </trkpt>
      <trkpt lat="48.89549" lon="1.93645">
        <ele>177.5</ele>
        <time>2012-01-23T14:06:25Z</time>
      </trkpt>
      <trkpt lat="48.89561" lon="1.93624">
        <ele>176.06</ele>
        <time>2012-01-23T14:06:40Z</time>
      </trkpt>
      <trkpt lat="48.89561" lon="1.93621">
        <ele>175.58</ele>
        <time>2012-01-23T14:06:52Z</time>
      </trkpt>
      <trkpt lat="48.89561" lon="1.93621">
        <ele>175.58</ele>
        <time>2012-01-23T14:07:14Z</time>
      </trkpt>
      <trkpt lat="48.89562" lon="1.93621">
        <ele>174.62</ele>
        <time>2012-01-23T14:07:42Z</time>
      </trkpt>
      <trkpt lat="48.89562" lon="1.93621">
        <ele>174.62</ele>
        <time>2012-01-23T14:08:12Z</time>
      </trkpt>
      <trkpt lat="48.89562" lon="1.93621">
        <ele>174.62</ele>
        <time>2012-01-23T14:08:35Z</time>
      </trkpt>
      <trkpt lat="48.89563" lon="1.93617">
        <ele>174.14</ele>
        <time>2012-01-23T14:08:59Z</time>
      </trkpt>
      <trkpt lat="48.89568" lon="1.93607">
        <ele>174.62</ele>
        <time>2012-01-23T14:09:06Z</time>
      </trkpt>
      <trkpt lat="48.89569" lon="1.93603">
        <ele>175.1</ele>
        <time>2012-01-23T14:09:08Z</time>
      </trkpt>
      <trkpt lat="48.89569" lon="1.9359">
        <ele>175.58</ele>
        <time>2012-01-23T14:09:15Z</time>
      </trkpt>
      <trkpt lat="48.89569" lon="1.93583">
        <ele>176.54</ele>
        <time>2012-01-23T14:09:19Z</time>
      </trkpt>
      <trkpt lat="48.89567" lon="1.93576">
        <ele>176.06</ele>
        <time>2012-01-23T14:09:37Z</time>
      </trkpt>
      <trkpt lat="48.8957" lon="1.93575">
        <ele>175.1</ele>
        <time>2012-01-23T14:09:45Z</time>
      </trkpt>
      <trkpt lat="48.89584" lon="1.93569">
        <ele>171.25</ele>
        <time>2012-01-23T14:09:57Z</time>
      </trkpt>
      <trkpt lat="48.89599" lon="1.93551">
        <ele>167.89</ele>
        <time>2012-01-23T14:10:13Z</time>
      </trkpt>
      <trkpt lat="48.89604" lon="1.93546">
        <ele>166.45</ele>
        <time>2012-01-23T14:10:20Z</time>
      </trkpt>
      <trkpt lat="48.89608" lon="1.93546">
        <ele>166.45</ele>
        <time>2012-01-23T14:10:22Z</time>
      </trkpt>
      <trkpt lat="48.89628" lon="1.93532">
        <ele>170.77</ele>
        <time>2012-01-23T14:10:35Z</time>
      </trkpt>
      <trkpt lat="48.89637" lon="1.93513">
        <ele>171.25</ele>
        <time>2012-01-23T14:10:47Z</time>
      </trkpt>
      <trkpt lat="48.89649" lon="1.9349">
        <ele>172.21</ele>
        <time>2012-01-23T14:11:01Z</time>
      </trkpt>
      <trkpt lat="48.89654" lon="1.93483">
        <ele>171.25</ele>
        <time>2012-01-23T14:11:19Z</time>
      </trkpt>
      <trkpt lat="48.89655" lon="1.9348">
        <ele>170.29</ele>
        <time>2012-01-23T14:11:41Z</time>
      </trkpt>
      <trkpt lat="48.89673" lon="1.93458">
        <ele>168.37</ele>
        <time>2012-01-23T14:11:57Z</time>
      </trkpt>
      <trkpt lat="48.89674" lon="1.93456">
        <ele>168.37</ele>
        <time>2012-01-23T14:11:58Z</time>
      </trkpt>
      <trkpt lat="48.89678" lon="1.93446">
        <ele>169.33</ele>
        <time>2012-01-23T14:12:02Z</time>
      </trkpt>
      <trkpt lat="48.89679" lon="1.93442">
        <ele>169.33</ele>
        <time>2012-01-23T14:12:04Z</time>
      </trkpt>
      <trkpt lat="48.89689" lon="1.93416">
        <ele>169.81</ele>
        <time>2012-01-23T14:12:15Z</time>
      </trkpt>
      <trkpt lat="48.89703" lon="1.93393">
        <ele>170.29</ele>
        <time>2012-01-23T14:12:30Z</time>
      </trkpt>
      <trkpt lat="48.89706" lon="1.93388">
        <ele>170.29</ele>
        <time>2012-01-23T14:12:33Z</time>
      </trkpt>
      <trkpt lat="48.89711" lon="1.93381">
        <ele>169.33</ele>
        <time>2012-01-23T14:12:38Z</time>
      </trkpt>
      <trkpt lat="48.89716" lon="1.93374">
        <ele>170.77</ele>
        <time>2012-01-23T14:12:43Z</time>
      </trkpt>
      <trkpt lat="48.89732" lon="1.93349">
        <ele>173.66</ele>
        <time>2012-01-23T14:12:58Z</time>
      </trkpt>
      <trkpt lat="48.89746" lon="1.93328">
        <ele>175.1</ele>
        <time>2012-01-23T14:13:13Z</time>
      </trkpt>
      <trkpt lat="48.89759" lon="1.93301">
        <ele>173.17</ele>
        <time>2012-01-23T14:13:29Z</time>
      </trkpt>
      <trkpt lat="48.89771" lon="1.93277">
        <ele>172.69</ele>
        <time>2012-01-23T14:13:44Z</time>
      </trkpt>
      <trkpt lat="48.89784" lon="1.93257">
        <ele>169.33</ele>
        <time>2012-01-23T14:13:59Z</time>
      </trkpt>
      <trkpt lat="48.89793" lon="1.93241">
        <ele>168.37</ele>
        <time>2012-01-23T14:14:11Z</time>
      </trkpt>
      <trkpt lat="48.898" lon="1.93222">
        <ele>167.41</ele>
        <time>2012-01-23T14:14:24Z</time>
      </trkpt>
      <trkpt lat="48.89807" lon="1.93202">
        <ele>169.33</ele>
        <time>2012-01-23T14:14:37Z</time>
      </trkpt>
      <trkpt lat="48.8981" lon="1.93199">
        <ele>169.81</ele>
        <time>2012-01-23T14:14:43Z</time>
      </trkpt>
      <trkpt lat="48.89824" lon="1.93182">
        <ele>172.69</ele>
        <time>2012-01-23T14:14:57Z</time>
      </trkpt>
      <trkpt lat="48.89835" lon="1.93158">
        <ele>176.54</ele>
        <time>2012-01-23T14:15:10Z</time>
      </trkpt>
      <trkpt lat="48.89842" lon="1.93144">
        <ele>180.38</ele>
        <time>2012-01-23T14:15:18Z</time>
      </trkpt>
      <trkpt lat="48.8985" lon="1.93127">
        <ele>182.31</ele>
        <time>2012-01-23T14:15:32Z</time>
      </trkpt>
      <trkpt lat="48.89858" lon="1.93114">
        <ele>180.87</ele>
        <time>2012-01-23T14:15:43Z</time>
      </trkpt>
      <trkpt lat="48.89871" lon="1.93098">
        <ele>176.54</ele>
        <time>2012-01-23T14:15:57Z</time>
      </trkpt>
      <trkpt lat="48.89875" lon="1.93091">
        <ele>175.1</ele>
        <time>2012-01-23T14:16:03Z</time>
      </trkpt>
      <trkpt lat="48.89886" lon="1.93077">
        <ele>178.46</ele>
        <time>2012-01-23T14:16:16Z</time>
      </trkpt>
      <trkpt lat="48.89894" lon="1.93064">
        <ele>180.38</ele>
        <time>2012-01-23T14:16:29Z</time>
      </trkpt>
      <trkpt lat="48.89902" lon="1.93045">
        <ele>181.83</ele>
        <time>2012-01-23T14:16:45Z</time>
      </trkpt>
      <trkpt lat="48.89909" lon="1.93027">
        <ele>182.79</ele>
        <time>2012-01-23T14:16:59Z</time>
      </trkpt>
      <trkpt lat="48.89919" lon="1.93008">
        <ele>181.83</ele>
        <time>2012-01-23T14:17:10Z</time>
      </trkpt>
      <trkpt lat="48.89936" lon="1.92986">
        <ele>177.5</ele>
        <time>2012-01-23T14:17:25Z</time>
      </trkpt>
      <trkpt lat="48.89948" lon="1.92967">
        <ele>174.62</ele>
        <time>2012-01-23T14:17:40Z</time>
      </trkpt>
      <trkpt lat="48.89957" lon="1.92952">
        <ele>173.17</ele>
        <time>2012-01-23T14:17:50Z</time>
      </trkpt>
      <trkpt lat="48.89962" lon="1.92941">
        <ele>174.14</ele>
        <time>2012-01-23T14:17:59Z</time>
      </trkpt>
      <trkpt lat="48.89966" lon="1.92932">
        <ele>175.1</ele>
        <time>2012-01-23T14:18:04Z</time>
      </trkpt>
      <trkpt lat="48.89977" lon="1.92917">
        <ele>174.62</ele>
        <time>2012-01-23T14:18:17Z</time>
      </trkpt>
      <trkpt lat="48.89977" lon="1.92917">
        <ele>174.62</ele>
        <time>2012-01-23T14:18:36Z</time>
      </trkpt>
      <trkpt lat="48.89983" lon="1.92913">
        <ele>174.14</ele>
        <time>2012-01-23T14:18:57Z</time>
      </trkpt>
      <trkpt lat="48.89988" lon="1.92916">
        <ele>174.14</ele>
        <time>2012-01-23T14:19:15Z</time>
      </trkpt>
      <trkpt lat="48.89989" lon="1.92917">
        <ele>174.14</ele>
        <time>2012-01-23T14:19:16Z</time>
      </trkpt>
      <trkpt lat="48.90007" lon="1.92931">
        <ele>174.14</ele>
        <time>2012-01-23T14:19:30Z</time>
      </trkpt>
      <trkpt lat="48.90026" lon="1.92948">
        <ele>174.14</ele>
        <time>2012-01-23T14:19:45Z</time>
      </trkpt>
      <trkpt lat="48.90041" lon="1.92962">
        <ele>173.66</ele>
        <time>2012-01-23T14:19:57Z</time>
      </trkpt>
      <trkpt lat="48.90056" lon="1.92975">
        <ele>172.21</ele>
        <time>2012-01-23T14:20:09Z</time>
      </trkpt>
      <trkpt lat="48.90061" lon="1.92981">
        <ele>170.77</ele>
        <time>2012-01-23T14:20:14Z</time>
      </trkpt>
      <trkpt lat="48.90082" lon="1.92998">
        <ele>170.77</ele>
        <time>2012-01-23T14:20:31Z</time>
      </trkpt>
      <trkpt lat="48.90098" lon="1.93019">
        <ele>172.21</ele>
        <time>2012-01-23T14:20:45Z</time>
      </trkpt>
      <trkpt lat="48.90106" lon="1.93028">
        <ele>172.21</ele>
        <time>2012-01-23T14:20:54Z</time>
      </trkpt>
      <trkpt lat="48.90108" lon="1.93032">
        <ele>172.69</ele>
        <time>2012-01-23T14:20:57Z</time>
      </trkpt>
      <trkpt lat="48.90118" lon="1.93046">
        <ele>173.17</ele>
        <time>2012-01-23T14:21:11Z</time>
      </trkpt>
      <trkpt lat="48.90132" lon="1.9306">
        <ele>174.62</ele>
        <time>2012-01-23T14:21:25Z</time>
      </trkpt>
      <trkpt lat="48.90143" lon="1.93076">
        <ele>174.62</ele>
        <time>2012-01-23T14:21:40Z</time>
      </trkpt>
      <trkpt lat="48.90153" lon="1.93089">
        <ele>171.73</ele>
        <time>2012-01-23T14:21:51Z</time>
      </trkpt>
      <trkpt lat="48.90156" lon="1.93093">
        <ele>171.25</ele>
        <time>2012-01-23T14:22:06Z</time>
      </trkpt>
      <trkpt lat="48.90176" lon="1.93112">
        <ele>168.85</ele>
        <time>2012-01-23T14:22:18Z</time>
      </trkpt>
      <trkpt lat="48.90185" lon="1.93122">
        <ele>167.41</ele>
        <time>2012-01-23T14:22:25Z</time>
      </trkpt>
      <trkpt lat="48.90206" lon="1.93136">
        <ele>169.33</ele>
        <time>2012-01-23T14:22:40Z</time>
      </trkpt>
      <trkpt lat="48.9022" lon="1.93148">
        <ele>173.17</ele>
        <time>2012-01-23T14:22:48Z</time>
      </trkpt>
      <trkpt lat="48.90231" lon="1.9317">
        <ele>172.69</ele>
        <time>2012-01-23T14:23:02Z</time>
      </trkpt>
      <trkpt lat="48.90246" lon="1.93188">
        <ele>171.25</ele>
        <time>2012-01-23T14:23:16Z</time>
      </trkpt>
      <trkpt lat="48.90262" lon="1.93204">
        <ele>170.29</ele>
        <time>2012-01-23T14:23:31Z</time>
      </trkpt>
      <trkpt lat="48.90276" lon="1.93216">
        <ele>169.81</ele>
        <time>2012-01-23T14:23:41Z</time>
      </trkpt>
      <trkpt lat="48.90293" lon="1.93236">
        <ele>169.81</ele>
        <time>2012-01-23T14:23:57Z</time>
      </trkpt>
      <trkpt lat="48.9031" lon="1.93253">
        <ele>169.33</ele>
        <time>2012-01-23T14:24:10Z</time>
      </trkpt>
      <trkpt lat="48.90331" lon="1.93276">
        <ele>168.85</ele>
        <time>2012-01-23T14:24:29Z</time>
      </trkpt>
      <trkpt lat="48.90349" lon="1.93295">
        <ele>166.93</ele>
        <time>2012-01-23T14:24:45Z</time>
      </trkpt>
      <trkpt lat="48.90366" lon="1.93307">
        <ele>166.93</ele>
        <time>2012-01-23T14:25:00Z</time>
      </trkpt>
      <trkpt lat="48.90379" lon="1.93322">
        <ele>166.93</ele>
        <time>2012-01-23T14:25:14Z</time>
      </trkpt>
      <trkpt lat="48.90396" lon="1.93337">
        <ele>166.45</ele>
        <time>2012-01-23T14:25:29Z</time>
      </trkpt>
      <trkpt lat="48.90415" lon="1.93357">
        <ele>166.45</ele>
        <time>2012-01-23T14:25:47Z</time>
      </trkpt>
      <trkpt lat="48.90424" lon="1.93368">
        <ele>166.45</ele>
        <time>2012-01-23T14:25:56Z</time>
      </trkpt>
      <trkpt lat="48.90427" lon="1.93372">
        <ele>166.93</ele>
        <time>2012-01-23T14:26:01Z</time>
      </trkpt>
      <trkpt lat="48.9043" lon="1.93372">
        <ele>167.41</ele>
        <time>2012-01-23T14:26:03Z</time>
      </trkpt>
      <trkpt lat="48.90446" lon="1.93395">
        <ele>166.45</ele>
        <time>2012-01-23T14:26:20Z</time>
      </trkpt>
      <trkpt lat="48.90458" lon="1.93416">
        <ele>167.41</ele>
        <time>2012-01-23T14:26:36Z</time>
      </trkpt>
      <trkpt lat="48.9046" lon="1.93442">
        <ele>167.89</ele>
        <time>2012-01-23T14:26:50Z</time>
      </trkpt>
      <trkpt lat="48.90463" lon="1.93471">
        <ele>166.93</ele>
        <time>2012-01-23T14:27:04Z</time>
      </trkpt>
      <trkpt lat="48.90466" lon="1.93486">
        <ele>166.93</ele>
        <time>2012-01-23T14:27:11Z</time>
      </trkpt>
      <trkpt lat="48.90472" lon="1.93516">
        <ele>166.93</ele>
        <time>2012-01-23T14:27:27Z</time>
      </trkpt>
      <trkpt lat="48.90473" lon="1.93521">
        <ele>166.45</ele>
        <time>2012-01-23T14:27:30Z</time>
      </trkpt>
      <trkpt lat="48.90483" lon="1.9354">
        <ele>165.96</ele>
        <time>2012-01-23T14:27:49Z</time>
      </trkpt>
      <trkpt lat="48.90492" lon="1.93553">
        <ele>166.93</ele>
        <time>2012-01-23T14:28:12Z</time>
      </trkpt>
      <trkpt lat="48.90508" lon="1.93571">
        <ele>165.96</ele>
        <time>2012-01-23T14:28:27Z</time>
      </trkpt>
      <trkpt lat="48.90523" lon="1.93584">
        <ele>165.48</ele>
        <time>2012-01-23T14:28:41Z</time>
      </trkpt>
      <trkpt lat="48.90537" lon="1.93596">
        <ele>163.56</ele>
        <time>2012-01-23T14:28:55Z</time>
      </trkpt>
      <trkpt lat="48.90555" lon="1.93605">
        <ele>164.52</ele>
        <time>2012-01-23T14:29:09Z</time>
      </trkpt>
      <trkpt lat="48.90568" lon="1.93613">
        <ele>163.56</ele>
        <time>2012-01-23T14:29:23Z</time>
      </trkpt>
      <trkpt lat="48.90572" lon="1.93617">
        <ele>162.12</ele>
        <time>2012-01-23T14:29:28Z</time>
      </trkpt>
      <trkpt lat="48.9059" lon="1.93632">
        <ele>161.64</ele>
        <time>2012-01-23T14:29:42Z</time>
      </trkpt>
      <trkpt lat="48.90605" lon="1.93647">
        <ele>163.08</ele>
        <time>2012-01-23T14:29:55Z</time>
      </trkpt>
      <trkpt lat="48.90606" lon="1.93649">
        <ele>163.08</ele>
        <time>2012-01-23T14:29:56Z</time>
      </trkpt>
      <trkpt lat="48.9062" lon="1.93667">
        <ele>162.12</ele>
        <time>2012-01-23T14:30:11Z</time>
      </trkpt>
      <trkpt lat="48.90629" lon="1.9368">
        <ele>161.64</ele>
        <time>2012-01-23T14:30:20Z</time>
      </trkpt>
      <trkpt lat="48.90635" lon="1.93693">
        <ele>160.2</ele>
        <time>2012-01-23T14:30:29Z</time>
      </trkpt>
      <trkpt lat="48.90647" lon="1.93715">
        <ele>160.68</ele>
        <time>2012-01-23T14:30:45Z</time>
      </trkpt>
      <trkpt lat="48.90657" lon="1.93727">
        <ele>160.2</ele>
        <time>2012-01-23T14:30:55Z</time>
      </trkpt>
      <trkpt lat="48.90665" lon="1.93743">
        <ele>161.16</ele>
        <time>2012-01-23T14:31:07Z</time>
      </trkpt>
      <trkpt lat="48.90674" lon="1.93758">
        <ele>162.12</ele>
        <time>2012-01-23T14:31:18Z</time>
      </trkpt>
      <trkpt lat="48.90683" lon="1.93778">
        <ele>161.16</ele>
        <time>2012-01-23T14:31:32Z</time>
      </trkpt>
      <trkpt lat="48.90693" lon="1.93797">
        <ele>162.12</ele>
        <time>2012-01-23T14:31:45Z</time>
      </trkpt>
      <trkpt lat="48.90702" lon="1.93813">
        <ele>161.64</ele>
        <time>2012-01-23T14:31:56Z</time>
      </trkpt>
      <trkpt lat="48.90715" lon="1.93835">
        <ele>162.12</ele>
        <time>2012-01-23T14:32:11Z</time>
      </trkpt>
      <trkpt lat="48.90727" lon="1.93857">
        <ele>162.6</ele>
        <time>2012-01-23T14:32:25Z</time>
      </trkpt>
      <trkpt lat="48.90738" lon="1.93883">
        <ele>162.6</ele>
        <time>2012-01-23T14:32:41Z</time>
      </trkpt>
      <trkpt lat="48.90747" lon="1.93906">
        <ele>163.08</ele>
        <time>2012-01-23T14:32:56Z</time>
      </trkpt>
      <trkpt lat="48.90752" lon="1.93933">
        <ele>163.08</ele>
        <time>2012-01-23T14:33:10Z</time>
      </trkpt>
      <trkpt lat="48.90753" lon="1.93941">
        <ele>162.6</ele>
        <time>2012-01-23T14:33:14Z</time>
      </trkpt>
      <trkpt lat="48.90754" lon="1.93953">
        <ele>162.6</ele>
        <time>2012-01-23T14:33:20Z</time>
      </trkpt>
      <trkpt lat="48.90757" lon="1.93972">
        <ele>162.12</ele>
        <time>2012-01-23T14:33:30Z</time>
      </trkpt>
      <trkpt lat="48.90762" lon="1.93993">
        <ele>161.16</ele>
        <time>2012-01-23T14:33:42Z</time>
      </trkpt>
      <trkpt lat="48.90767" lon="1.94017">
        <ele>159.24</ele>
        <time>2012-01-23T14:33:55Z</time>
      </trkpt>
      <trkpt lat="48.90767" lon="1.94021">
        <ele>158.75</ele>
        <time>2012-01-23T14:33:57Z</time>
      </trkpt>
      <trkpt lat="48.90774" lon="1.94043">
        <ele>156.83</ele>
        <time>2012-01-23T14:34:11Z</time>
      </trkpt>
      <trkpt lat="48.90782" lon="1.9407">
        <ele>157.79</ele>
        <time>2012-01-23T14:34:26Z</time>
      </trkpt>
      <trkpt lat="48.90784" lon="1.94078">
        <ele>157.79</ele>
        <time>2012-01-23T14:34:31Z</time>
      </trkpt>
      <trkpt lat="48.90796" lon="1.94103">
        <ele>157.79</ele>
        <time>2012-01-23T14:34:46Z</time>
      </trkpt>
      <trkpt lat="48.908" lon="1.94113">
        <ele>157.79</ele>
        <time>2012-01-23T14:34:52Z</time>
      </trkpt>
      <trkpt lat="48.90802" lon="1.94127">
        <ele>156.83</ele>
        <time>2012-01-23T14:35:00Z</time>
      </trkpt>
      <trkpt lat="48.90803" lon="1.94133">
        <ele>156.35</ele>
        <time>2012-01-23T14:35:04Z</time>
      </trkpt>
      <trkpt lat="48.90813" lon="1.94154">
        <ele>156.35</ele>
        <time>2012-01-23T14:35:17Z</time>
      </trkpt>
      <trkpt lat="48.90821" lon="1.9418">
        <ele>156.35</ele>
        <time>2012-01-23T14:35:32Z</time>
      </trkpt>
      <trkpt lat="48.90823" lon="1.94195">
        <ele>155.87</ele>
        <time>2012-01-23T14:35:40Z</time>
      </trkpt>
      <trkpt lat="48.90823" lon="1.94212">
        <ele>155.39</ele>
        <time>2012-01-23T14:35:54Z</time>
      </trkpt>
      <trkpt lat="48.90823" lon="1.94227">
        <ele>153.95</ele>
        <time>2012-01-23T14:36:04Z</time>
      </trkpt>
      <trkpt lat="48.9082" lon="1.94252">
        <ele>155.39</ele>
        <time>2012-01-23T14:36:18Z</time>
      </trkpt>
      <trkpt lat="48.90822" lon="1.94269">
        <ele>158.75</ele>
        <time>2012-01-23T14:36:30Z</time>
      </trkpt>
      <trkpt lat="48.90822" lon="1.94283">
        <ele>157.79</ele>
        <time>2012-01-23T14:36:42Z</time>
      </trkpt>
      <trkpt lat="48.90824" lon="1.94289">
        <ele>158.27</ele>
        <time>2012-01-23T14:36:45Z</time>
      </trkpt>
      <trkpt lat="48.90827" lon="1.94301">
        <ele>158.75</ele>
        <time>2012-01-23T14:36:51Z</time>
      </trkpt>
      <trkpt lat="48.90837" lon="1.94331">
        <ele>162.6</ele>
        <time>2012-01-23T14:37:06Z</time>
      </trkpt>
      <trkpt lat="48.90837" lon="1.94359">
        <ele>162.6</ele>
        <time>2012-01-23T14:37:22Z</time>
      </trkpt>
      <trkpt lat="48.90837" lon="1.94375">
        <ele>164.52</ele>
        <time>2012-01-23T14:37:35Z</time>
      </trkpt>
      <trkpt lat="48.90837" lon="1.94375">
        <ele>164.52</ele>
        <time>2012-01-23T14:37:54Z</time>
      </trkpt>
      <trkpt lat="48.90833" lon="1.94381">
        <ele>164.04</ele>
        <time>2012-01-23T14:38:12Z</time>
      </trkpt>
      <trkpt lat="48.90836" lon="1.94384">
        <ele>164.04</ele>
        <time>2012-01-23T14:38:25Z</time>
      </trkpt>
      <trkpt lat="48.9084" lon="1.944">
        <ele>161.64</ele>
        <time>2012-01-23T14:38:37Z</time>
      </trkpt>
      <trkpt lat="48.90845" lon="1.94422">
        <ele>159.24</ele>
        <time>2012-01-23T14:38:51Z</time>
      </trkpt>
      <trkpt lat="48.90853" lon="1.94443">
        <ele>156.83</ele>
        <time>2012-01-23T14:39:02Z</time>
      </trkpt>
      <trkpt lat="48.90866" lon="1.94473">
        <ele>160.68</ele>
        <time>2012-01-23T14:39:15Z</time>
      </trkpt>
      <trkpt lat="48.90869" lon="1.94491">
        <ele>156.83</ele>
        <time>2012-01-23T14:39:29Z</time>
      </trkpt>
      <trkpt lat="48.90875" lon="1.94511">
        <ele>157.79</ele>
        <time>2012-01-23T14:39:43Z</time>
      </trkpt>
      <trkpt lat="48.90882" lon="1.94537">
        <ele>152.51</ele>
        <time>2012-01-23T14:40:00Z</time>
      </trkpt>
      <trkpt lat="48.90884" lon="1.94558">
        <ele>149.14</ele>
        <time>2012-01-23T14:40:13Z</time>
      </trkpt>
      <trkpt lat="48.90893" lon="1.94576">
        <ele>147.7</ele>
        <time>2012-01-23T14:40:22Z</time>
      </trkpt>
      <trkpt lat="48.90897" lon="1.94596">
        <ele>152.51</ele>
        <time>2012-01-23T14:40:35Z</time>
      </trkpt>
      <trkpt lat="48.909" lon="1.94603">
        <ele>153.95</ele>
        <time>2012-01-23T14:40:39Z</time>
      </trkpt>
      <trkpt lat="48.90908" lon="1.94618">
        <ele>156.35</ele>
        <time>2012-01-23T14:40:47Z</time>
      </trkpt>
      <trkpt lat="48.90917" lon="1.94636">
        <ele>157.79</ele>
        <time>2012-01-23T14:41:00Z</time>
      </trkpt>
      <trkpt lat="48.90927" lon="1.94655">
        <ele>157.79</ele>
        <time>2012-01-23T14:41:14Z</time>
      </trkpt>
      <trkpt lat="48.90937" lon="1.94668">
        <ele>157.79</ele>
        <time>2012-01-23T14:41:27Z</time>
      </trkpt>
      <trkpt lat="48.9095" lon="1.94685">
        <ele>159.24</ele>
        <time>2012-01-23T14:41:40Z</time>
      </trkpt>
      <trkpt lat="48.9096" lon="1.94706">
        <ele>159.24</ele>
        <time>2012-01-23T14:41:53Z</time>
      </trkpt>
      <trkpt lat="48.90971" lon="1.94724">
        <ele>161.64</ele>
        <time>2012-01-23T14:42:06Z</time>
      </trkpt>
      <trkpt lat="48.90975" lon="1.94729">
        <ele>161.64</ele>
        <time>2012-01-23T14:42:09Z</time>
      </trkpt>
      <trkpt lat="48.90983" lon="1.94742">
        <ele>161.64</ele>
        <time>2012-01-23T14:42:22Z</time>
      </trkpt>
      <trkpt lat="48.90993" lon="1.94759">
        <ele>161.64</ele>
        <time>2012-01-23T14:42:34Z</time>
      </trkpt>
      <trkpt lat="48.91004" lon="1.94782">
        <ele>159.24</ele>
        <time>2012-01-23T14:42:47Z</time>
      </trkpt>
      <trkpt lat="48.91014" lon="1.94806">
        <ele>157.31</ele>
        <time>2012-01-23T14:43:00Z</time>
      </trkpt>
      <trkpt lat="48.9102" lon="1.94818">
        <ele>157.31</ele>
        <time>2012-01-23T14:43:05Z</time>
      </trkpt>
      <trkpt lat="48.91022" lon="1.94822">
        <ele>156.83</ele>
        <time>2012-01-23T14:43:07Z</time>
      </trkpt>
      <trkpt lat="48.91031" lon="1.94846">
        <ele>154.91</ele>
        <time>2012-01-23T14:43:22Z</time>
      </trkpt>
      <trkpt lat="48.91041" lon="1.94866">
        <ele>153.95</ele>
        <time>2012-01-23T14:43:33Z</time>
      </trkpt>
      <trkpt lat="48.91043" lon="1.94877">
        <ele>154.43</ele>
        <time>2012-01-23T14:43:40Z</time>
      </trkpt>
      <trkpt lat="48.91047" lon="1.94898">
        <ele>155.39</ele>
        <time>2012-01-23T14:43:52Z</time>
      </trkpt>
      <trkpt lat="48.91056" lon="1.94929">
        <ele>158.27</ele>
        <time>2012-01-23T14:44:05Z</time>
      </trkpt>
      <trkpt lat="48.91056" lon="1.94931">
        <ele>158.75</ele>
        <time>2012-01-23T14:44:06Z</time>
      </trkpt>
      <trkpt lat="48.9106" lon="1.94944">
        <ele>159.72</ele>
        <time>2012-01-23T14:44:13Z</time>
      </trkpt>
      <trkpt lat="48.91066" lon="1.94965">
        <ele>163.56</ele>
        <time>2012-01-23T14:44:25Z</time>
      </trkpt>
      <trkpt lat="48.91072" lon="1.94979">
        <ele>162.6</ele>
        <time>2012-01-23T14:44:39Z</time>
      </trkpt>
      <trkpt lat="48.91073" lon="1.9498">
        <ele>162.12</ele>
        <time>2012-01-23T14:45:00Z</time>
      </trkpt>
      <trkpt lat="48.91083" lon="1.94986">
        <ele>162.6</ele>
        <time>2012-01-23T14:45:07Z</time>
      </trkpt>
      <trkpt lat="48.91086" lon="1.94985">
        <ele>161.64</ele>
        <time>2012-01-23T14:45:24Z</time>
      </trkpt>
      <trkpt lat="48.91088" lon="1.94986">
        <ele>161.64</ele>
        <time>2012-01-23T14:45:44Z</time>
      </trkpt>
      <trkpt lat="48.91104" lon="1.94993">
        <ele>163.08</ele>
        <time>2012-01-23T14:45:58Z</time>
      </trkpt>
      <trkpt lat="48.91114" lon="1.95003">
        <ele>163.56</ele>
        <time>2012-01-23T14:46:10Z</time>
      </trkpt>
      <trkpt lat="48.91116" lon="1.95004">
        <ele>163.08</ele>
        <time>2012-01-23T14:46:12Z</time>
      </trkpt>
      <trkpt lat="48.91139" lon="1.95021">
        <ele>165</ele>
        <time>2012-01-23T14:46:28Z</time>
      </trkpt>
      <trkpt lat="48.91143" lon="1.95022">
        <ele>165</ele>
        <time>2012-01-23T14:46:31Z</time>
      </trkpt>
      <trkpt lat="48.91158" lon="1.95031">
        <ele>164.52</ele>
        <time>2012-01-23T14:46:43Z</time>
      </trkpt>
      <trkpt lat="48.91172" lon="1.95039">
        <ele>163.08</ele>
        <time>2012-01-23T14:46:55Z</time>
      </trkpt>
      <trkpt lat="48.91181" lon="1.95046">
        <ele>162.12</ele>
        <time>2012-01-23T14:47:04Z</time>
      </trkpt>
      <trkpt lat="48.91201" lon="1.95061">
        <ele>163.08</ele>
        <time>2012-01-23T14:47:21Z</time>
      </trkpt>
      <trkpt lat="48.91201" lon="1.95061">
        <ele>163.08</ele>
        <time>2012-01-23T14:47:23Z</time>
      </trkpt>
      <trkpt lat="48.91211" lon="1.95076">
        <ele>164.52</ele>
        <time>2012-01-23T14:47:31Z</time>
      </trkpt>
      <trkpt lat="48.91219" lon="1.9509">
        <ele>166.45</ele>
        <time>2012-01-23T14:47:39Z</time>
      </trkpt>
      <trkpt lat="48.9122" lon="1.95103">
        <ele>168.37</ele>
        <time>2012-01-23T14:47:45Z</time>
      </trkpt>
      <trkpt lat="48.91224" lon="1.95121">
        <ele>168.37</ele>
        <time>2012-01-23T14:47:57Z</time>
      </trkpt>
      <trkpt lat="48.91229" lon="1.95145">
        <ele>167.89</ele>
        <time>2012-01-23T14:48:11Z</time>
      </trkpt>
      <trkpt lat="48.91229" lon="1.95147">
        <ele>167.89</ele>
        <time>2012-01-23T14:48:12Z</time>
      </trkpt>
      <trkpt lat="48.91233" lon="1.95176">
        <ele>169.33</ele>
        <time>2012-01-23T14:48:24Z</time>
      </trkpt>
      <trkpt lat="48.91239" lon="1.95192">
        <ele>168.85</ele>
        <time>2012-01-23T14:48:36Z</time>
      </trkpt>
      <trkpt lat="48.91246" lon="1.95215">
        <ele>168.85</ele>
        <time>2012-01-23T14:48:49Z</time>
      </trkpt>
      <trkpt lat="48.91248" lon="1.95221">
        <ele>168.85</ele>
        <time>2012-01-23T14:48:52Z</time>
      </trkpt>
      <trkpt lat="48.91251" lon="1.9524">
        <ele>168.85</ele>
        <time>2012-01-23T14:49:04Z</time>
      </trkpt>
      <trkpt lat="48.91256" lon="1.95266">
        <ele>167.41</ele>
        <time>2012-01-23T14:49:17Z</time>
      </trkpt>
      <trkpt lat="48.91257" lon="1.95287">
        <ele>166.45</ele>
        <time>2012-01-23T14:49:28Z</time>
      </trkpt>
      <trkpt lat="48.91262" lon="1.95304">
        <ele>168.37</ele>
        <time>2012-01-23T14:49:35Z</time>
      </trkpt>
      <trkpt lat="48.91264" lon="1.95308">
        <ele>167.89</ele>
        <time>2012-01-23T14:49:37Z</time>
      </trkpt>
      <trkpt lat="48.91274" lon="1.95335">
        <ele>164.52</ele>
        <time>2012-01-23T14:49:51Z</time>
      </trkpt>
      <trkpt lat="48.91278" lon="1.95349">
        <ele>165.48</ele>
        <time>2012-01-23T14:50:01Z</time>
      </trkpt>
      <trkpt lat="48.91288" lon="1.95365">
        <ele>165</ele>
        <time>2012-01-23T14:50:13Z</time>
      </trkpt>
      <trkpt lat="48.91292" lon="1.95375">
        <ele>165.48</ele>
        <time>2012-01-23T14:50:20Z</time>
      </trkpt>
      <trkpt lat="48.91296" lon="1.95383">
        <ele>165.48</ele>
        <time>2012-01-23T14:50:24Z</time>
      </trkpt>
      <trkpt lat="48.9131" lon="1.95403">
        <ele>165.96</ele>
        <time>2012-01-23T14:50:39Z</time>
      </trkpt>
      <trkpt lat="48.91321" lon="1.95426">
        <ele>166.93</ele>
        <time>2012-01-23T14:50:53Z</time>
      </trkpt>
      <trkpt lat="48.91329" lon="1.9545">
        <ele>165</ele>
        <time>2012-01-23T14:51:06Z</time>
      </trkpt>
      <trkpt lat="48.91331" lon="1.95473">
        <ele>164.52</ele>
        <time>2012-01-23T14:51:18Z</time>
      </trkpt>
      <trkpt lat="48.91331" lon="1.95477">
        <ele>164.52</ele>
        <time>2012-01-23T14:51:20Z</time>
      </trkpt>
      <trkpt lat="48.91335" lon="1.95503">
        <ele>163.56</ele>
        <time>2012-01-23T14:51:33Z</time>
      </trkpt>
      <trkpt lat="48.91337" lon="1.95518">
        <ele>160.68</ele>
        <time>2012-01-23T14:51:43Z</time>
      </trkpt>
      <trkpt lat="48.91341" lon="1.95538">
        <ele>156.35</ele>
        <time>2012-01-23T14:51:55Z</time>
      </trkpt>
      <trkpt lat="48.91338" lon="1.95544">
        <ele>157.31</ele>
        <time>2012-01-23T14:51:57Z</time>
      </trkpt>
      <trkpt lat="48.91337" lon="1.95566">
        <ele>153.95</ele>
        <time>2012-01-23T14:52:10Z</time>
      </trkpt>
      <trkpt lat="48.91337" lon="1.956">
        <ele>154.43</ele>
        <time>2012-01-23T14:52:25Z</time>
      </trkpt>
      <trkpt lat="48.91339" lon="1.95616">
        <ele>150.58</ele>
        <time>2012-01-23T14:52:35Z</time>
      </trkpt>
      <trkpt lat="48.91337" lon="1.95621">
        <ele>148.18</ele>
        <time>2012-01-23T14:52:39Z</time>
      </trkpt>
      <trkpt lat="48.91339" lon="1.95656">
        <ele>148.66</ele>
        <time>2012-01-23T14:52:53Z</time>
      </trkpt>
      <trkpt lat="48.91338" lon="1.95659">
        <ele>149.62</ele>
        <time>2012-01-23T14:53:11Z</time>
      </trkpt>
      <trkpt lat="48.91339" lon="1.95659">
        <ele>149.62</ele>
        <time>2012-01-23T14:53:42Z</time>
      </trkpt>
      <trkpt lat="48.91339" lon="1.95659">
        <ele>149.62</ele>
        <time>2012-01-23T14:54:10Z</time>
      </trkpt>
      <trkpt lat="48.91339" lon="1.95659">
        <ele>149.62</ele>
        <time>2012-01-23T14:54:38Z</time>
      </trkpt>
      <trkpt lat="48.91338" lon="1.95671">
        <ele>149.62</ele>
        <time>2012-01-23T14:54:52Z</time>
      </trkpt>
      <trkpt lat="48.91339" lon="1.95695">
        <ele>149.14</ele>
        <time>2012-01-23T14:55:04Z</time>
      </trkpt>
      <trkpt lat="48.91339" lon="1.95724">
        <ele>146.26</ele>
        <time>2012-01-23T14:55:18Z</time>
      </trkpt>
      <trkpt lat="48.91338" lon="1.9575">
        <ele>141.45</ele>
        <time>2012-01-23T14:55:31Z</time>
      </trkpt>
      <trkpt lat="48.91338" lon="1.95769">
        <ele>138.09</ele>
        <time>2012-01-23T14:55:44Z</time>
      </trkpt>
      <trkpt lat="48.91338" lon="1.95776">
        <ele>132.8</ele>
        <time>2012-01-23T14:55:55Z</time>
      </trkpt>
      <trkpt lat="48.9134" lon="1.95795">
        <ele>125.11</ele>
        <time>2012-01-23T14:56:08Z</time>
      </trkpt>
      <trkpt lat="48.91341" lon="1.95817">
        <ele>116.94</ele>
        <time>2012-01-23T14:56:19Z</time>
      </trkpt>
      <trkpt lat="48.91344" lon="1.9584">
        <ele>108.77</ele>
        <time>2012-01-23T14:56:33Z</time>
      </trkpt>
      <trkpt lat="48.91342" lon="1.95858">
        <ele>107.81</ele>
        <time>2012-01-23T14:56:47Z</time>
      </trkpt>
      <trkpt lat="48.91342" lon="1.95858">
        <ele>107.81</ele>
        <time>2012-01-23T14:57:12Z</time>
      </trkpt>
      <trkpt lat="48.91346" lon="1.95888">
        <ele>106.84</ele>
        <time>2012-01-23T14:57:27Z</time>
      </trkpt>
      <trkpt lat="48.91347" lon="1.95904">
        <ele>109.25</ele>
        <time>2012-01-23T14:57:32Z</time>
      </trkpt>
      <trkpt lat="48.91353" lon="1.95939">
        <ele>115.5</ele>
        <time>2012-01-23T14:57:47Z</time>
      </trkpt>
      <trkpt lat="48.91362" lon="1.95958">
        <ele>116.94</ele>
        <time>2012-01-23T14:57:57Z</time>
      </trkpt>
      <trkpt lat="48.91363" lon="1.95988">
        <ele>112.61</ele>
        <time>2012-01-23T14:58:11Z</time>
      </trkpt>
      <trkpt lat="48.91362" lon="1.96015">
        <ele>103.96</ele>
        <time>2012-01-23T14:58:26Z</time>
      </trkpt>
      <trkpt lat="48.91362" lon="1.96024">
        <ele>102.04</ele>
        <time>2012-01-23T14:58:41Z</time>
      </trkpt>
      <trkpt lat="48.91362" lon="1.96024">
        <ele>102.04</ele>
        <time>2012-01-23T14:58:55Z</time>
      </trkpt>
      <trkpt lat="48.91362" lon="1.96024">
        <ele>102.04</ele>
        <time>2012-01-23T14:59:01Z</time>
      </trkpt>
      <trkpt lat="48.91361" lon="1.96034">
        <ele>96.27</ele>
        <time>2012-01-23T14:59:05Z</time>
      </trkpt>
      <trkpt lat="48.91358" lon="1.96053">
        <ele>90.02</ele>
        <time>2012-01-23T14:59:20Z</time>
      </trkpt>
      <trkpt lat="48.91358" lon="1.96053">
        <ele>89.54</ele>
        <time>2012-01-23T14:59:48Z</time>
      </trkpt>
      <trkpt lat="48.91358" lon="1.96053">
        <ele>89.54</ele>
        <time>2012-01-23T14:59:59Z</time>
      </trkpt>
      <trkpt lat="48.91358" lon="1.96072">
        <ele>86.18</ele>
        <time>2012-01-23T15:00:16Z</time>
      </trkpt>
      <trkpt lat="48.91358" lon="1.96072">
        <ele>86.18</ele>
        <time>2012-01-23T15:00:44Z</time>
      </trkpt>
      <trkpt lat="48.91357" lon="1.96079">
        <ele>86.66</ele>
        <time>2012-01-23T15:01:08Z</time>
      </trkpt>
      <trkpt lat="48.91357" lon="1.96079">
        <ele>86.66</ele>
        <time>2012-01-23T15:01:33Z</time>
      </trkpt>
      <trkpt lat="48.91355" lon="1.96083">
        <ele>88.58</ele>
        <time>2012-01-23T15:01:59Z</time>
      </trkpt>
      <trkpt lat="48.91355" lon="1.96083">
        <ele>89.06</ele>
        <time>2012-01-23T15:02:32Z</time>
      </trkpt>
      <trkpt lat="48.91355" lon="1.96083">
        <ele>89.06</ele>
        <time>2012-01-23T15:03:04Z</time>
      </trkpt>
      <trkpt lat="48.91354" lon="1.96083">
        <ele>89.06</ele>
        <time>2012-01-23T15:03:21Z</time>
      </trkpt>
      <trkpt lat="48.91354" lon="1.96089">
        <ele>90.02</ele>
        <time>2012-01-23T15:03:24Z</time>
      </trkpt>
      <trkpt lat="48.91334" lon="1.96123">
        <ele>99.15</ele>
        <time>2012-01-23T15:03:38Z</time>
      </trkpt>
      <trkpt lat="48.91307" lon="1.96157">
        <ele>115.98</ele>
        <time>2012-01-23T15:03:55Z</time>
      </trkpt>
      <trkpt lat="48.91287" lon="1.96174">
        <ele>117.9</ele>
        <time>2012-01-23T15:04:11Z</time>
      </trkpt>
      <trkpt lat="48.91266" lon="1.96191">
        <ele>118.38</ele>
        <time>2012-01-23T15:04:27Z</time>
      </trkpt>
      <trkpt lat="48.91247" lon="1.96213">
        <ele>117.9</ele>
        <time>2012-01-23T15:04:43Z</time>
      </trkpt>
      <trkpt lat="48.91225" lon="1.96234">
        <ele>115.98</ele>
        <time>2012-01-23T15:05:00Z</time>
      </trkpt>
      <trkpt lat="48.91215" lon="1.96243">
        <ele>114.53</ele>
        <time>2012-01-23T15:05:15Z</time>
      </trkpt>
      <trkpt lat="48.91215" lon="1.96243">
        <ele>114.53</ele>
        <time>2012-01-23T15:05:31Z</time>
      </trkpt>
      <trkpt lat="48.91213" lon="1.96243">
        <ele>114.05</ele>
        <time>2012-01-23T15:05:51Z</time>
      </trkpt>
      <trkpt lat="48.91213" lon="1.96245">
        <ele>114.05</ele>
        <time>2012-01-23T15:05:56Z</time>
      </trkpt>
      <trkpt lat="48.91211" lon="1.96257">
        <ele>113.09</ele>
        <time>2012-01-23T15:06:05Z</time>
      </trkpt>
      <trkpt lat="48.91202" lon="1.96225">
        <ele>115.01</ele>
        <time>2012-01-23T15:06:20Z</time>
      </trkpt>
      <trkpt lat="48.91191" lon="1.96201">
        <ele>113.09</ele>
        <time>2012-01-23T15:06:35Z</time>
      </trkpt>
      <trkpt lat="48.9118" lon="1.96177">
        <ele>112.61</ele>
        <time>2012-01-23T15:06:49Z</time>
      </trkpt>
      <trkpt lat="48.91168" lon="1.96156">
        <ele>116.94</ele>
        <time>2012-01-23T15:07:02Z</time>
      </trkpt>
      <trkpt lat="48.91156" lon="1.96135">
        <ele>121.74</ele>
        <time>2012-01-23T15:07:15Z</time>
      </trkpt>
      <trkpt lat="48.91145" lon="1.96106">
        <ele>123.67</ele>
        <time>2012-01-23T15:07:30Z</time>
      </trkpt>
      <trkpt lat="48.91134" lon="1.9608">
        <ele>123.67</ele>
        <time>2012-01-23T15:07:44Z</time>
      </trkpt>
      <trkpt lat="48.91129" lon="1.96067">
        <ele>122.22</ele>
        <time>2012-01-23T15:07:51Z</time>
      </trkpt>
      <trkpt lat="48.9112" lon="1.96042">
        <ele>121.74</ele>
        <time>2012-01-23T15:08:05Z</time>
      </trkpt>
      <trkpt lat="48.91112" lon="1.96019">
        <ele>118.38</ele>
        <time>2012-01-23T15:08:20Z</time>
      </trkpt>
      <trkpt lat="48.91096" lon="1.95986">
        <ele>115.01</ele>
        <time>2012-01-23T15:08:36Z</time>
      </trkpt>
      <trkpt lat="48.91087" lon="1.95963">
        <ele>113.57</ele>
        <time>2012-01-23T15:08:49Z</time>
      </trkpt>
      <trkpt lat="48.91086" lon="1.95961">
        <ele>113.57</ele>
        <time>2012-01-23T15:09:08Z</time>
      </trkpt>
      <trkpt lat="48.91081" lon="1.95944">
        <ele>113.09</ele>
        <time>2012-01-23T15:09:22Z</time>
      </trkpt>
      <trkpt lat="48.91076" lon="1.95925">
        <ele>113.09</ele>
        <time>2012-01-23T15:09:35Z</time>
      </trkpt>
      <trkpt lat="48.91068" lon="1.95895">
        <ele>113.09</ele>
        <time>2012-01-23T15:09:49Z</time>
      </trkpt>
      <trkpt lat="48.91063" lon="1.95866">
        <ele>113.57</ele>
        <time>2012-01-23T15:10:04Z</time>
      </trkpt>
      <trkpt lat="48.91056" lon="1.9584">
        <ele>114.53</ele>
        <time>2012-01-23T15:10:18Z</time>
      </trkpt>
      <trkpt lat="48.91052" lon="1.95818">
        <ele>115.5</ele>
        <time>2012-01-23T15:10:28Z</time>
      </trkpt>
      <trkpt lat="48.91042" lon="1.95782">
        <ele>118.38</ele>
        <time>2012-01-23T15:10:44Z</time>
      </trkpt>
      <trkpt lat="48.91038" lon="1.95761">
        <ele>119.82</ele>
        <time>2012-01-23T15:10:55Z</time>
      </trkpt>
      <trkpt lat="48.91035" lon="1.95751">
        <ele>120.3</ele>
        <time>2012-01-23T15:11:09Z</time>
      </trkpt>
      <trkpt lat="48.91034" lon="1.95743">
        <ele>121.74</ele>
        <time>2012-01-23T15:11:15Z</time>
      </trkpt>
      <trkpt lat="48.91028" lon="1.95714">
        <ele>122.22</ele>
        <time>2012-01-23T15:11:30Z</time>
      </trkpt>
      <trkpt lat="48.91021" lon="1.95684">
        <ele>122.71</ele>
        <time>2012-01-23T15:11:47Z</time>
      </trkpt>
      <trkpt lat="48.91015" lon="1.95663">
        <ele>123.67</ele>
        <time>2012-01-23T15:11:58Z</time>
      </trkpt>
      <trkpt lat="48.91011" lon="1.95639">
        <ele>127.03</ele>
        <time>2012-01-23T15:12:12Z</time>
      </trkpt>
      <trkpt lat="48.91013" lon="1.95632">
        <ele>127.03</ele>
        <time>2012-01-23T15:12:25Z</time>
      </trkpt>
      <trkpt lat="48.9101" lon="1.95628">
        <ele>127.03</ele>
        <time>2012-01-23T15:12:42Z</time>
      </trkpt>
      <trkpt lat="48.91002" lon="1.95602">
        <ele>127.99</ele>
        <time>2012-01-23T15:12:56Z</time>
      </trkpt>
      <trkpt lat="48.90995" lon="1.95573">
        <ele>128.47</ele>
        <time>2012-01-23T15:13:10Z</time>
      </trkpt>
      <trkpt lat="48.90987" lon="1.95543">
        <ele>129.43</ele>
        <time>2012-01-23T15:13:26Z</time>
      </trkpt>
      <trkpt lat="48.90992" lon="1.95524">
        <ele>127.99</ele>
        <time>2012-01-23T15:13:36Z</time>
      </trkpt>
      <trkpt lat="48.90992" lon="1.95515">
        <ele>126.55</ele>
        <time>2012-01-23T15:13:40Z</time>
      </trkpt>
      <trkpt lat="48.90988" lon="1.95488">
        <ele>126.55</ele>
        <time>2012-01-23T15:13:55Z</time>
      </trkpt>
      <trkpt lat="48.90988" lon="1.95483">
        <ele>127.03</ele>
        <time>2012-01-23T15:14:11Z</time>
      </trkpt>
      <trkpt lat="48.90987" lon="1.95483">
        <ele>127.03</ele>
        <time>2012-01-23T15:14:32Z</time>
      </trkpt>
      <trkpt lat="48.90987" lon="1.95483">
        <ele>127.03</ele>
        <time>2012-01-23T15:15:15Z</time>
      </trkpt>
      <trkpt lat="48.90987" lon="1.95483">
        <ele>127.03</ele>
        <time>2012-01-23T15:15:40Z</time>
      </trkpt>
      <trkpt lat="48.90984" lon="1.95472">
        <ele>127.03</ele>
        <time>2012-01-23T15:15:52Z</time>
      </trkpt>
      <trkpt lat="48.90987" lon="1.95451">
        <ele>126.07</ele>
        <time>2012-01-23T15:16:01Z</time>
      </trkpt>
      <trkpt lat="48.90989" lon="1.95437">
        <ele>126.07</ele>
        <time>2012-01-23T15:16:15Z</time>
      </trkpt>
      <trkpt lat="48.90988" lon="1.95436">
        <ele>126.07</ele>
        <time>2012-01-23T15:16:25Z</time>
      </trkpt>
      <trkpt lat="48.90988" lon="1.9544">
        <ele>126.55</ele>
        <time>2012-01-23T15:16:27Z</time>
      </trkpt>
      <trkpt lat="48.90985" lon="1.95459">
        <ele>128.47</ele>
        <time>2012-01-23T15:16:39Z</time>
      </trkpt>
      <trkpt lat="48.90983" lon="1.95468">
        <ele>128.47</ele>
        <time>2012-01-23T15:16:43Z</time>
      </trkpt>
      <trkpt lat="48.90977" lon="1.95484">
        <ele>126.55</ele>
        <time>2012-01-23T15:16:56Z</time>
      </trkpt>
      <trkpt lat="48.90977" lon="1.95484">
        <ele>126.55</ele>
        <time>2012-01-23T15:17:19Z</time>
      </trkpt>
      <trkpt lat="48.90976" lon="1.95484">
        <ele>126.07</ele>
        <time>2012-01-23T15:17:46Z</time>
      </trkpt>
      <trkpt lat="48.90967" lon="1.955">
        <ele>127.51</ele>
        <time>2012-01-23T15:17:57Z</time>
      </trkpt>
      <trkpt lat="48.90965" lon="1.955">
        <ele>127.51</ele>
        <time>2012-01-23T15:17:59Z</time>
      </trkpt>
      <trkpt lat="48.90944" lon="1.95509">
        <ele>128.95</ele>
        <time>2012-01-23T15:18:17Z</time>
      </trkpt>
      <trkpt lat="48.90941" lon="1.9551">
        <ele>128.47</ele>
        <time>2012-01-23T15:18:19Z</time>
      </trkpt>
      <trkpt lat="48.90922" lon="1.95521">
        <ele>127.51</ele>
        <time>2012-01-23T15:18:35Z</time>
      </trkpt>
      <trkpt lat="48.90912" lon="1.95528">
        <ele>126.55</ele>
        <time>2012-01-23T15:18:48Z</time>
      </trkpt>
      <trkpt lat="48.90898" lon="1.95543">
        <ele>127.51</ele>
        <time>2012-01-23T15:19:01Z</time>
      </trkpt>
      <trkpt lat="48.90885" lon="1.95558">
        <ele>131.84</ele>
        <time>2012-01-23T15:19:13Z</time>
      </trkpt>
      <trkpt lat="48.90882" lon="1.95561">
        <ele>132.8</ele>
        <time>2012-01-23T15:19:15Z</time>
      </trkpt>
      <trkpt lat="48.9088" lon="1.95562">
        <ele>132.8</ele>
        <time>2012-01-23T15:19:17Z</time>
      </trkpt>
      <trkpt lat="48.90869" lon="1.95571">
        <ele>132.8</ele>
        <time>2012-01-23T15:19:25Z</time>
      </trkpt>
      <trkpt lat="48.90867" lon="1.95574">
        <ele>132.8</ele>
        <time>2012-01-23T15:19:27Z</time>
      </trkpt>
      <trkpt lat="48.90863" lon="1.95577">
        <ele>132.32</ele>
        <time>2012-01-23T15:19:31Z</time>
      </trkpt>
      <trkpt lat="48.90845" lon="1.95581">
        <ele>132.32</ele>
        <time>2012-01-23T15:19:46Z</time>
      </trkpt>
      <trkpt lat="48.9083" lon="1.95583">
        <ele>132.8</ele>
        <time>2012-01-23T15:19:59Z</time>
      </trkpt>
      <trkpt lat="48.90813" lon="1.9558">
        <ele>133.28</ele>
        <time>2012-01-23T15:20:13Z</time>
      </trkpt>
      <trkpt lat="48.90812" lon="1.9558">
        <ele>133.28</ele>
        <time>2012-01-23T15:20:14Z</time>
      </trkpt>
      <trkpt lat="48.90795" lon="1.95571">
        <ele>137.61</ele>
        <time>2012-01-23T15:20:29Z</time>
      </trkpt>
      <trkpt lat="48.90779" lon="1.95563">
        <ele>141.45</ele>
        <time>2012-01-23T15:20:43Z</time>
      </trkpt>
      <trkpt lat="48.90766" lon="1.95553">
        <ele>144.82</ele>
        <time>2012-01-23T15:21:00Z</time>
      </trkpt>
      <trkpt lat="48.90755" lon="1.95545">
        <ele>146.74</ele>
        <time>2012-01-23T15:21:19Z</time>
      </trkpt>
      <trkpt lat="48.90742" lon="1.95533">
        <ele>147.7</ele>
        <time>2012-01-23T15:21:31Z</time>
      </trkpt>
      <trkpt lat="48.90728" lon="1.95522">
        <ele>148.18</ele>
        <time>2012-01-23T15:21:44Z</time>
      </trkpt>
      <trkpt lat="48.90713" lon="1.95517">
        <ele>150.58</ele>
        <time>2012-01-23T15:21:56Z</time>
      </trkpt>
      <trkpt lat="48.90698" lon="1.95518">
        <ele>152.99</ele>
        <time>2012-01-23T15:22:10Z</time>
      </trkpt>
      <trkpt lat="48.90687" lon="1.95519">
        <ele>153.95</ele>
        <time>2012-01-23T15:22:20Z</time>
      </trkpt>
      <trkpt lat="48.90668" lon="1.95516">
        <ele>157.79</ele>
        <time>2012-01-23T15:22:35Z</time>
      </trkpt>
      <trkpt lat="48.90653" lon="1.95507">
        <ele>159.24</ele>
        <time>2012-01-23T15:22:49Z</time>
      </trkpt>
      <trkpt lat="48.90652" lon="1.95506">
        <ele>159.24</ele>
        <time>2012-01-23T15:23:04Z</time>
      </trkpt>
      <trkpt lat="48.90647" lon="1.95503">
        <ele>160.2</ele>
        <time>2012-01-23T15:23:19Z</time>
      </trkpt>
      <trkpt lat="48.90652" lon="1.95511">
        <ele>160.68</ele>
        <time>2012-01-23T15:23:26Z</time>
      </trkpt>
      <trkpt lat="48.90657" lon="1.95524">
        <ele>158.75</ele>
        <time>2012-01-23T15:23:35Z</time>
      </trkpt>
      <trkpt lat="48.90653" lon="1.95515">
        <ele>155.87</ele>
        <time>2012-01-23T15:23:44Z</time>
      </trkpt>
      <trkpt lat="48.90639" lon="1.95501">
        <ele>155.39</ele>
        <time>2012-01-23T15:23:56Z</time>
      </trkpt>
      <trkpt lat="48.90622" lon="1.95477">
        <ele>156.35</ele>
        <time>2012-01-23T15:24:11Z</time>
      </trkpt>
      <trkpt lat="48.90612" lon="1.95469">
        <ele>158.27</ele>
        <time>2012-01-23T15:24:20Z</time>
      </trkpt>
      <trkpt lat="48.90608" lon="1.95468">
        <ele>158.27</ele>
        <time>2012-01-23T15:24:24Z</time>
      </trkpt>
      <trkpt lat="48.90602" lon="1.95463">
        <ele>158.27</ele>
        <time>2012-01-23T15:24:41Z</time>
      </trkpt>
      <trkpt lat="48.90593" lon="1.95454">
        <ele>159.72</ele>
        <time>2012-01-23T15:24:53Z</time>
      </trkpt>
      <trkpt lat="48.90577" lon="1.95441">
        <ele>163.08</ele>
        <time>2012-01-23T15:25:05Z</time>
      </trkpt>
      <trkpt lat="48.90559" lon="1.95429">
        <ele>163.08</ele>
        <time>2012-01-23T15:25:20Z</time>
      </trkpt>
      <trkpt lat="48.9055" lon="1.95423">
        <ele>163.08</ele>
        <time>2012-01-23T15:25:32Z</time>
      </trkpt>
      <trkpt lat="48.9055" lon="1.95423">
        <ele>163.08</ele>
        <time>2012-01-23T15:25:42Z</time>
      </trkpt>
      <trkpt lat="48.90547" lon="1.95421">
        <ele>164.04</ele>
        <time>2012-01-23T15:25:45Z</time>
      </trkpt>
      <trkpt lat="48.90533" lon="1.95419">
        <ele>163.08</ele>
        <time>2012-01-23T15:25:58Z</time>
      </trkpt>
      <trkpt lat="48.90528" lon="1.95414">
        <ele>164.04</ele>
        <time>2012-01-23T15:26:10Z</time>
      </trkpt>
      <trkpt lat="48.90528" lon="1.95414">
        <ele>164.04</ele>
        <time>2012-01-23T15:26:34Z</time>
      </trkpt>
      <trkpt lat="48.90526" lon="1.95413">
        <ele>165</ele>
        <time>2012-01-23T15:26:48Z</time>
      </trkpt>
      <trkpt lat="48.90512" lon="1.95397">
        <ele>166.45</ele>
        <time>2012-01-23T15:27:00Z</time>
      </trkpt>
      <trkpt lat="48.90511" lon="1.95395">
        <ele>165.96</ele>
        <time>2012-01-23T15:27:20Z</time>
      </trkpt>
      <trkpt lat="48.90508" lon="1.95392">
        <ele>165.96</ele>
        <time>2012-01-23T15:27:33Z</time>
      </trkpt>
      <trkpt lat="48.90505" lon="1.95389">
        <ele>166.93</ele>
        <time>2012-01-23T15:28:05Z</time>
      </trkpt>
      <trkpt lat="48.90503" lon="1.95386">
        <ele>166.93</ele>
        <time>2012-01-23T15:28:07Z</time>
      </trkpt>
      <trkpt lat="48.90489" lon="1.95365">
        <ele>167.41</ele>
        <time>2012-01-23T15:28:21Z</time>
      </trkpt>
      <trkpt lat="48.90475" lon="1.95345">
        <ele>166.45</ele>
        <time>2012-01-23T15:28:35Z</time>
      </trkpt>
      <trkpt lat="48.90459" lon="1.9532">
        <ele>166.93</ele>
        <time>2012-01-23T15:28:50Z</time>
      </trkpt>
      <trkpt lat="48.90443" lon="1.953">
        <ele>170.29</ele>
        <time>2012-01-23T15:29:05Z</time>
      </trkpt>
      <trkpt lat="48.9043" lon="1.95279">
        <ele>169.81</ele>
        <time>2012-01-23T15:29:19Z</time>
      </trkpt>
      <trkpt lat="48.90414" lon="1.95257">
        <ele>170.29</ele>
        <time>2012-01-23T15:29:34Z</time>
      </trkpt>
      <trkpt lat="48.90406" lon="1.95243">
        <ele>169.81</ele>
        <time>2012-01-23T15:29:43Z</time>
      </trkpt>
      <trkpt lat="48.90401" lon="1.95236">
        <ele>168.85</ele>
        <time>2012-01-23T15:29:48Z</time>
      </trkpt>
      <trkpt lat="48.9039" lon="1.9523">
        <ele>167.89</ele>
        <time>2012-01-23T15:30:01Z</time>
      </trkpt>
      <trkpt lat="48.90385" lon="1.95244">
        <ele>167.89</ele>
        <time>2012-01-23T15:30:09Z</time>
      </trkpt>
      <trkpt lat="48.90378" lon="1.95274">
        <ele>168.85</ele>
        <time>2012-01-23T15:30:25Z</time>
      </trkpt>
      <trkpt lat="48.9037" lon="1.95303">
        <ele>169.33</ele>
        <time>2012-01-23T15:30:41Z</time>
      </trkpt>
      <trkpt lat="48.90366" lon="1.95314">
        <ele>168.85</ele>
        <time>2012-01-23T15:30:55Z</time>
      </trkpt>
      <trkpt lat="48.90358" lon="1.95337">
        <ele>169.33</ele>
        <time>2012-01-23T15:31:09Z</time>
      </trkpt>
      <trkpt lat="48.90348" lon="1.95366">
        <ele>168.37</ele>
        <time>2012-01-23T15:31:25Z</time>
      </trkpt>
      <trkpt lat="48.90339" lon="1.95391">
        <ele>167.89</ele>
        <time>2012-01-23T15:31:40Z</time>
      </trkpt>
      <trkpt lat="48.90328" lon="1.9542">
        <ele>167.89</ele>
        <time>2012-01-23T15:31:56Z</time>
      </trkpt>
      <trkpt lat="48.90319" lon="1.9545">
        <ele>168.85</ele>
        <time>2012-01-23T15:32:12Z</time>
      </trkpt>
      <trkpt lat="48.9031" lon="1.95478">
        <ele>170.29</ele>
        <time>2012-01-23T15:32:27Z</time>
      </trkpt>
      <trkpt lat="48.90301" lon="1.95503">
        <ele>170.77</ele>
        <time>2012-01-23T15:32:41Z</time>
      </trkpt>
      <trkpt lat="48.90291" lon="1.95532">
        <ele>171.73</ele>
        <time>2012-01-23T15:32:56Z</time>
      </trkpt>
      <trkpt lat="48.90281" lon="1.95563">
        <ele>172.69</ele>
        <time>2012-01-23T15:33:13Z</time>
      </trkpt>
      <trkpt lat="48.90272" lon="1.95591">
        <ele>172.21</ele>
        <time>2012-01-23T15:33:28Z</time>
      </trkpt>
      <trkpt lat="48.90264" lon="1.9561">
        <ele>171.25</ele>
        <time>2012-01-23T15:33:39Z</time>
      </trkpt>
      <trkpt lat="48.90255" lon="1.95627">
        <ele>172.69</ele>
        <time>2012-01-23T15:33:52Z</time>
      </trkpt>
      <trkpt lat="48.90254" lon="1.95627">
        <ele>173.17</ele>
        <time>2012-01-23T15:33:53Z</time>
      </trkpt>
      <trkpt lat="48.90252" lon="1.95624">
        <ele>172.21</ele>
        <time>2012-01-23T15:33:56Z</time>
      </trkpt>
      <trkpt lat="48.90237" lon="1.95622">
        <ele>170.29</ele>
        <time>2012-01-23T15:34:10Z</time>
      </trkpt>
      <trkpt lat="48.90224" lon="1.95618">
        <ele>171.73</ele>
        <time>2012-01-23T15:34:22Z</time>
      </trkpt>
      <trkpt lat="48.90208" lon="1.95613">
        <ele>172.21</ele>
        <time>2012-01-23T15:34:35Z</time>
      </trkpt>
      <trkpt lat="48.90205" lon="1.95611">
        <ele>171.73</ele>
        <time>2012-01-23T15:34:38Z</time>
      </trkpt>
      <trkpt lat="48.90202" lon="1.95612">
        <ele>171.25</ele>
        <time>2012-01-23T15:34:41Z</time>
      </trkpt>
      <trkpt lat="48.90187" lon="1.95606">
        <ele>171.25</ele>
        <time>2012-01-23T15:34:55Z</time>
      </trkpt>
      <trkpt lat="48.90178" lon="1.95602">
        <ele>171.25</ele>
        <time>2012-01-23T15:35:08Z</time>
      </trkpt>
      <trkpt lat="48.90176" lon="1.95601">
        <ele>171.73</ele>
        <time>2012-01-23T15:35:10Z</time>
      </trkpt>
      <trkpt lat="48.90169" lon="1.95601">
        <ele>171.73</ele>
        <time>2012-01-23T15:35:22Z</time>
      </trkpt>
      <trkpt lat="48.90165" lon="1.95604">
        <ele>172.21</ele>
        <time>2012-01-23T15:35:46Z</time>
      </trkpt>
      <trkpt lat="48.90158" lon="1.9563">
        <ele>171.73</ele>
        <time>2012-01-23T15:36:01Z</time>
      </trkpt>
      <trkpt lat="48.90157" lon="1.95638">
        <ele>171.25</ele>
        <time>2012-01-23T15:36:19Z</time>
      </trkpt>
      <trkpt lat="48.90157" lon="1.95639">
        <ele>171.25</ele>
        <time>2012-01-23T15:36:50Z</time>
      </trkpt>
      <trkpt lat="48.90154" lon="1.95644">
        <ele>171.25</ele>
        <time>2012-01-23T15:37:05Z</time>
      </trkpt>
      <trkpt lat="48.90151" lon="1.95655">
        <ele>171.25</ele>
        <time>2012-01-23T15:37:15Z</time>
      </trkpt>
      <trkpt lat="48.90148" lon="1.9567">
        <ele>171.73</ele>
        <time>2012-01-23T15:37:22Z</time>
      </trkpt>
      <trkpt lat="48.90143" lon="1.95684">
        <ele>171.73</ele>
        <time>2012-01-23T15:37:30Z</time>
      </trkpt>
      <trkpt lat="48.90136" lon="1.95699">
        <ele>171.73</ele>
        <time>2012-01-23T15:37:39Z</time>
      </trkpt>
      <trkpt lat="48.90127" lon="1.95691">
        <ele>173.17</ele>
        <time>2012-01-23T15:37:52Z</time>
      </trkpt>
      <trkpt lat="48.90124" lon="1.95687">
        <ele>173.66</ele>
        <time>2012-01-23T15:38:20Z</time>
      </trkpt>
      <trkpt lat="48.90103" lon="1.95672">
        <ele>173.66</ele>
        <time>2012-01-23T15:38:36Z</time>
      </trkpt>
      <trkpt lat="48.90086" lon="1.9566">
        <ele>173.17</ele>
        <time>2012-01-23T15:38:51Z</time>
      </trkpt>
      <trkpt lat="48.90067" lon="1.95646">
        <ele>172.69</ele>
        <time>2012-01-23T15:39:07Z</time>
      </trkpt>
      <trkpt lat="48.90066" lon="1.95645">
        <ele>172.69</ele>
        <time>2012-01-23T15:39:08Z</time>
      </trkpt>
      <trkpt lat="48.90048" lon="1.9563">
        <ele>171.25</ele>
        <time>2012-01-23T15:39:23Z</time>
      </trkpt>
      <trkpt lat="48.90031" lon="1.95618">
        <ele>171.73</ele>
        <time>2012-01-23T15:39:39Z</time>
      </trkpt>
      <trkpt lat="48.90029" lon="1.95615">
        <ele>171.73</ele>
        <time>2012-01-23T15:39:54Z</time>
      </trkpt>
      <trkpt lat="48.90021" lon="1.9561">
        <ele>171.73</ele>
        <time>2012-01-23T15:40:10Z</time>
      </trkpt>
      <trkpt lat="48.90004" lon="1.95598">
        <ele>172.21</ele>
        <time>2012-01-23T15:40:25Z</time>
      </trkpt>
      <trkpt lat="48.8999" lon="1.95587">
        <ele>171.73</ele>
        <time>2012-01-23T15:40:37Z</time>
      </trkpt>
      <trkpt lat="48.89972" lon="1.95572">
        <ele>171.25</ele>
        <time>2012-01-23T15:40:53Z</time>
      </trkpt>
      <trkpt lat="48.89965" lon="1.95568">
        <ele>171.73</ele>
        <time>2012-01-23T15:40:59Z</time>
      </trkpt>
      <trkpt lat="48.89952" lon="1.95558">
        <ele>172.69</ele>
        <time>2012-01-23T15:41:13Z</time>
      </trkpt>
      <trkpt lat="48.89944" lon="1.95553">
        <ele>172.69</ele>
        <time>2012-01-23T15:41:20Z</time>
      </trkpt>
      <trkpt lat="48.89929" lon="1.95542">
        <ele>173.17</ele>
        <time>2012-01-23T15:41:33Z</time>
      </trkpt>
      <trkpt lat="48.89924" lon="1.95537">
        <ele>172.69</ele>
        <time>2012-01-23T15:41:38Z</time>
      </trkpt>
      <trkpt lat="48.89918" lon="1.95533">
        <ele>172.69</ele>
        <time>2012-01-23T15:41:43Z</time>
      </trkpt>
      <trkpt lat="48.89905" lon="1.95523">
        <ele>172.69</ele>
        <time>2012-01-23T15:41:55Z</time>
      </trkpt>
      <trkpt lat="48.89889" lon="1.95511">
        <ele>172.69</ele>
        <time>2012-01-23T15:42:10Z</time>
      </trkpt>
      <trkpt lat="48.89886" lon="1.95507">
        <ele>172.69</ele>
        <time>2012-01-23T15:42:13Z</time>
      </trkpt>
      <trkpt lat="48.89882" lon="1.95504">
        <ele>172.69</ele>
        <time>2012-01-23T15:42:17Z</time>
      </trkpt>
      <trkpt lat="48.89864" lon="1.95493">
        <ele>173.17</ele>
        <time>2012-01-23T15:42:32Z</time>
      </trkpt>
      <trkpt lat="48.89842" lon="1.95476">
        <ele>173.66</ele>
        <time>2012-01-23T15:42:51Z</time>
      </trkpt>
      <trkpt lat="48.89823" lon="1.95463">
        <ele>173.66</ele>
        <time>2012-01-23T15:43:07Z</time>
      </trkpt>
      <trkpt lat="48.89805" lon="1.95449">
        <ele>173.17</ele>
        <time>2012-01-23T15:43:22Z</time>
      </trkpt>
      <trkpt lat="48.8979" lon="1.95439">
        <ele>172.21</ele>
        <time>2012-01-23T15:43:35Z</time>
      </trkpt>
      <trkpt lat="48.89779" lon="1.95433">
        <ele>172.21</ele>
        <time>2012-01-23T15:43:45Z</time>
      </trkpt>
      <trkpt lat="48.89759" lon="1.95418">
        <ele>172.69</ele>
        <time>2012-01-23T15:44:03Z</time>
      </trkpt>
      <trkpt lat="48.8974" lon="1.95404">
        <ele>172.21</ele>
        <time>2012-01-23T15:44:19Z</time>
      </trkpt>
      <trkpt lat="48.89738" lon="1.95396">
        <ele>171.73</ele>
        <time>2012-01-23T15:44:31Z</time>
      </trkpt>
      <trkpt lat="48.89738" lon="1.95396">
        <ele>171.73</ele>
        <time>2012-01-23T15:44:47Z</time>
      </trkpt>
      <trkpt lat="48.89738" lon="1.95396">
        <ele>171.73</ele>
        <time>2012-01-23T15:45:13Z</time>
      </trkpt>
      <trkpt lat="48.89738" lon="1.95396">
        <ele>171.73</ele>
        <time>2012-01-23T15:45:41Z</time>
      </trkpt>
      <trkpt lat="48.89739" lon="1.95396">
        <ele>171.73</ele>
        <time>2012-01-23T15:46:11Z</time>
      </trkpt>
      <trkpt lat="48.89739" lon="1.95396">
        <ele>171.73</ele>
        <time>2012-01-23T15:46:45Z</time>
      </trkpt>
      <trkpt lat="48.89739" lon="1.95396">
        <ele>171.73</ele>
        <time>2012-01-23T15:47:16Z</time>
      </trkpt>
      <trkpt lat="48.89738" lon="1.95396">
        <ele>172.21</ele>
        <time>2012-01-23T15:47:36Z</time>
      </trkpt>
      <trkpt lat="48.8973" lon="1.95393">
        <ele>172.21</ele>
        <time>2012-01-23T15:47:52Z</time>
      </trkpt>
      <trkpt lat="48.89726" lon="1.9539">
        <ele>171.73</ele>
        <time>2012-01-23T15:47:56Z</time>
      </trkpt>
      <trkpt lat="48.89723" lon="1.95387">
        <ele>172.21</ele>
        <time>2012-01-23T15:48:07Z</time>
      </trkpt>
      <trkpt lat="48.8972" lon="1.95385">
        <ele>172.21</ele>
        <time>2012-01-23T15:48:10Z</time>
      </trkpt>
      <trkpt lat="48.89715" lon="1.95382">
        <ele>172.69</ele>
        <time>2012-01-23T15:48:19Z</time>
      </trkpt>
      <trkpt lat="48.89696" lon="1.95368">
        <ele>172.21</ele>
        <time>2012-01-23T15:48:36Z</time>
      </trkpt>
      <trkpt lat="48.89691" lon="1.95362">
        <ele>172.21</ele>
        <time>2012-01-23T15:48:47Z</time>
      </trkpt>
      <trkpt lat="48.89689" lon="1.95361">
        <ele>171.73</ele>
        <time>2012-01-23T15:48:49Z</time>
      </trkpt>
      <trkpt lat="48.89684" lon="1.95357">
        <ele>171.73</ele>
        <time>2012-01-23T15:49:01Z</time>
      </trkpt>
      <trkpt lat="48.89678" lon="1.95355">
        <ele>172.21</ele>
        <time>2012-01-23T15:49:07Z</time>
      </trkpt>
      <trkpt lat="48.89672" lon="1.95352">
        <ele>171.25</ele>
        <time>2012-01-23T15:49:11Z</time>
      </trkpt>
      <trkpt lat="48.89652" lon="1.9534">
        <ele>171.25</ele>
        <time>2012-01-23T15:49:29Z</time>
      </trkpt>
      <trkpt lat="48.89645" lon="1.95335">
        <ele>171.25</ele>
        <time>2012-01-23T15:49:35Z</time>
      </trkpt>
      <trkpt lat="48.89628" lon="1.95324">
        <ele>171.25</ele>
        <time>2012-01-23T15:49:51Z</time>
      </trkpt>
      <trkpt lat="48.89627" lon="1.95323">
        <ele>171.25</ele>
        <time>2012-01-23T15:49:52Z</time>
      </trkpt>
      <trkpt lat="48.89617" lon="1.95314">
        <ele>172.21</ele>
        <time>2012-01-23T15:50:03Z</time>
      </trkpt>
      <trkpt lat="48.89609" lon="1.95311">
        <ele>172.21</ele>
        <time>2012-01-23T15:50:10Z</time>
      </trkpt>
      <trkpt lat="48.89598" lon="1.95317">
        <ele>171.25</ele>
        <time>2012-01-23T15:50:22Z</time>
      </trkpt>
      <trkpt lat="48.89587" lon="1.95337">
        <ele>171.73</ele>
        <time>2012-01-23T15:50:37Z</time>
      </trkpt>
      <trkpt lat="48.89568" lon="1.95362">
        <ele>173.17</ele>
        <time>2012-01-23T15:50:55Z</time>
      </trkpt>
      <trkpt lat="48.89554" lon="1.95388">
        <ele>171.73</ele>
        <time>2012-01-23T15:51:12Z</time>
      </trkpt>
      <trkpt lat="48.8954" lon="1.9542">
        <ele>171.25</ele>
        <time>2012-01-23T15:51:30Z</time>
      </trkpt>
      <trkpt lat="48.89528" lon="1.95453">
        <ele>171.25</ele>
        <time>2012-01-23T15:51:48Z</time>
      </trkpt>
      <trkpt lat="48.89518" lon="1.95484">
        <ele>171.73</ele>
        <time>2012-01-23T15:52:04Z</time>
      </trkpt>
      <trkpt lat="48.89507" lon="1.95518">
        <ele>171.25</ele>
        <time>2012-01-23T15:52:21Z</time>
      </trkpt>
      <trkpt lat="48.89497" lon="1.95549">
        <ele>171.25</ele>
        <time>2012-01-23T15:52:37Z</time>
      </trkpt>
      <trkpt lat="48.89485" lon="1.95582">
        <ele>172.21</ele>
        <time>2012-01-23T15:52:58Z</time>
      </trkpt>
      <trkpt lat="48.89481" lon="1.95597">
        <ele>172.21</ele>
        <time>2012-01-23T15:53:11Z</time>
      </trkpt>
      <trkpt lat="48.89471" lon="1.95627">
        <ele>171.73</ele>
        <time>2012-01-23T15:53:27Z</time>
      </trkpt>
      <trkpt lat="48.89463" lon="1.95654">
        <ele>172.21</ele>
        <time>2012-01-23T15:53:44Z</time>
      </trkpt>
      <trkpt lat="48.89451" lon="1.95688">
        <ele>171.25</ele>
        <time>2012-01-23T15:54:02Z</time>
      </trkpt>
      <trkpt lat="48.89441" lon="1.9572">
        <ele>170.77</ele>
        <time>2012-01-23T15:54:19Z</time>
      </trkpt>
      <trkpt lat="48.8943" lon="1.95752">
        <ele>170.77</ele>
        <time>2012-01-23T15:54:36Z</time>
      </trkpt>
      <trkpt lat="48.89419" lon="1.95785">
        <ele>170.77</ele>
        <time>2012-01-23T15:54:53Z</time>
      </trkpt>
      <trkpt lat="48.89406" lon="1.95825">
        <ele>170.77</ele>
        <time>2012-01-23T15:55:13Z</time>
      </trkpt>
      <trkpt lat="48.89394" lon="1.95861">
        <ele>169.33</ele>
        <time>2012-01-23T15:55:32Z</time>
      </trkpt>
      <trkpt lat="48.8938" lon="1.95901">
        <ele>167.89</ele>
        <time>2012-01-23T15:55:53Z</time>
      </trkpt>
      <trkpt lat="48.89368" lon="1.95938">
        <ele>167.89</ele>
        <time>2012-01-23T15:56:12Z</time>
      </trkpt>
      <trkpt lat="48.89355" lon="1.95978">
        <ele>167.89</ele>
        <time>2012-01-23T15:56:33Z</time>
      </trkpt>
      <trkpt lat="48.89343" lon="1.96015">
        <ele>168.37</ele>
        <time>2012-01-23T15:56:52Z</time>
      </trkpt>
      <trkpt lat="48.89328" lon="1.96057">
        <ele>167.89</ele>
        <time>2012-01-23T15:57:14Z</time>
      </trkpt>
      <trkpt lat="48.89317" lon="1.96092">
        <ele>168.37</ele>
        <time>2012-01-23T15:57:32Z</time>
      </trkpt>
      <trkpt lat="48.89304" lon="1.9613">
        <ele>168.37</ele>
        <time>2012-01-23T15:57:52Z</time>
      </trkpt>
      <trkpt lat="48.89292" lon="1.96166">
        <ele>167.41</ele>
        <time>2012-01-23T15:58:11Z</time>
      </trkpt>
      <trkpt lat="48.89282" lon="1.96198">
        <ele>168.37</ele>
        <time>2012-01-23T15:58:29Z</time>
      </trkpt>
      <trkpt lat="48.8927" lon="1.96229">
        <ele>168.37</ele>
        <time>2012-01-23T15:58:46Z</time>
      </trkpt>
      <trkpt lat="48.8926" lon="1.96261">
        <ele>167.89</ele>
        <time>2012-01-23T15:59:03Z</time>
      </trkpt>
      <trkpt lat="48.89249" lon="1.96294">
        <ele>168.37</ele>
        <time>2012-01-23T15:59:20Z</time>
      </trkpt>
      <trkpt lat="48.8924" lon="1.96317">
        <ele>167.41</ele>
        <time>2012-01-23T15:59:34Z</time>
      </trkpt>
      <trkpt lat="48.89233" lon="1.96341">
        <ele>167.41</ele>
        <time>2012-01-23T15:59:48Z</time>
      </trkpt>
      <trkpt lat="48.89229" lon="1.96348">
        <ele>167.89</ele>
        <time>2012-01-23T16:00:00Z</time>
      </trkpt>
      <trkpt lat="48.89228" lon="1.96352">
        <ele>167.89</ele>
        <time>2012-01-23T16:00:15Z</time>
      </trkpt>
      <trkpt lat="48.89219" lon="1.96385">
        <ele>168.37</ele>
        <time>2012-01-23T16:00:30Z</time>
      </trkpt>
      <trkpt lat="48.89207" lon="1.96421">
        <ele>169.81</ele>
        <time>2012-01-23T16:00:47Z</time>
      </trkpt>
      <trkpt lat="48.89194" lon="1.9646">
        <ele>169.81</ele>
        <time>2012-01-23T16:01:07Z</time>
      </trkpt>
      <trkpt lat="48.89184" lon="1.96491">
        <ele>170.77</ele>
        <time>2012-01-23T16:01:24Z</time>
      </trkpt>
      <trkpt lat="48.89174" lon="1.96523">
        <ele>170.77</ele>
        <time>2012-01-23T16:01:41Z</time>
      </trkpt>
      <trkpt lat="48.89163" lon="1.96555">
        <ele>171.25</ele>
        <time>2012-01-23T16:01:57Z</time>
      </trkpt>
      <trkpt lat="48.89153" lon="1.96582">
        <ele>171.73</ele>
        <time>2012-01-23T16:02:12Z</time>
      </trkpt>
      <trkpt lat="48.89143" lon="1.96613">
        <ele>171.25</ele>
        <time>2012-01-23T16:02:28Z</time>
      </trkpt>
      <trkpt lat="48.89135" lon="1.96637">
        <ele>171.25</ele>
        <time>2012-01-23T16:02:41Z</time>
      </trkpt>
      <trkpt lat="48.89126" lon="1.96665">
        <ele>170.29</ele>
        <time>2012-01-23T16:02:56Z</time>
      </trkpt>
      <trkpt lat="48.89113" lon="1.96704">
        <ele>169.81</ele>
        <time>2012-01-23T16:03:16Z</time>
      </trkpt>
      <trkpt lat="48.89108" lon="1.96722">
        <ele>169.33</ele>
        <time>2012-01-23T16:03:26Z</time>
      </trkpt>
      <trkpt lat="48.89104" lon="1.9673">
        <ele>169.33</ele>
        <time>2012-01-23T16:03:31Z</time>
      </trkpt>
      <trkpt lat="48.89092" lon="1.96765">
        <ele>168.85</ele>
        <time>2012-01-23T16:03:49Z</time>
      </trkpt>
      <trkpt lat="48.89082" lon="1.96797">
        <ele>168.37</ele>
        <time>2012-01-23T16:04:06Z</time>
      </trkpt>
      <trkpt lat="48.89071" lon="1.96827">
        <ele>166.93</ele>
        <time>2012-01-23T16:04:22Z</time>
      </trkpt>
      <trkpt lat="48.89061" lon="1.96859">
        <ele>165</ele>
        <time>2012-01-23T16:04:38Z</time>
      </trkpt>
      <trkpt lat="48.89048" lon="1.96894">
        <ele>164.52</ele>
        <time>2012-01-23T16:04:57Z</time>
      </trkpt>
      <trkpt lat="48.89036" lon="1.96931">
        <ele>163.56</ele>
        <time>2012-01-23T16:05:16Z</time>
      </trkpt>
      <trkpt lat="48.89028" lon="1.96955">
        <ele>164.04</ele>
        <time>2012-01-23T16:05:30Z</time>
      </trkpt>
      <trkpt lat="48.89026" lon="1.96958">
        <ele>164.52</ele>
        <time>2012-01-23T16:05:44Z</time>
      </trkpt>
      <trkpt lat="48.89026" lon="1.96958">
        <ele>164.52</ele>
        <time>2012-01-23T16:06:10Z</time>
      </trkpt>
      <trkpt lat="48.89027" lon="1.96959">
        <ele>165.48</ele>
        <time>2012-01-23T16:06:36Z</time>
      </trkpt>
      <trkpt lat="48.89024" lon="1.96956">
        <ele>165.96</ele>
        <time>2012-01-23T16:06:48Z</time>
      </trkpt>
      <trkpt lat="48.89018" lon="1.96946">
        <ele>167.89</ele>
        <time>2012-01-23T16:07:02Z</time>
      </trkpt>
      <trkpt lat="48.89009" lon="1.96935">
        <ele>167.89</ele>
        <time>2012-01-23T16:07:19Z</time>
      </trkpt>
      <trkpt lat="48.88994" lon="1.96917">
        <ele>167.41</ele>
        <time>2012-01-23T16:07:34Z</time>
      </trkpt>
      <trkpt lat="48.88991" lon="1.96912">
        <ele>167.41</ele>
        <time>2012-01-23T16:07:37Z</time>
      </trkpt>
      <trkpt lat="48.88974" lon="1.96891">
        <ele>167.89</ele>
        <time>2012-01-23T16:07:54Z</time>
      </trkpt>
      <trkpt lat="48.88969" lon="1.96879">
        <ele>168.37</ele>
        <time>2012-01-23T16:08:06Z</time>
      </trkpt>
      <trkpt lat="48.88968" lon="1.9688">
        <ele>168.37</ele>
        <time>2012-01-23T16:08:13Z</time>
      </trkpt>
      <trkpt lat="48.88961" lon="1.96873">
        <ele>167.89</ele>
        <time>2012-01-23T16:08:20Z</time>
      </trkpt>
      <trkpt lat="48.88945" lon="1.96854">
        <ele>168.37</ele>
        <time>2012-01-23T16:08:36Z</time>
      </trkpt>
      <trkpt lat="48.88943" lon="1.96852">
        <ele>168.85</ele>
        <time>2012-01-23T16:08:38Z</time>
      </trkpt>
      <trkpt lat="48.8894" lon="1.96848">
        <ele>170.29</ele>
        <time>2012-01-23T16:08:42Z</time>
      </trkpt>
      <trkpt lat="48.88935" lon="1.96844">
        <ele>171.25</ele>
        <time>2012-01-23T16:08:46Z</time>
      </trkpt>
      <trkpt lat="48.88934" lon="1.96839">
        <ele>171.25</ele>
        <time>2012-01-23T16:08:49Z</time>
      </trkpt>
      <trkpt lat="48.8893" lon="1.96835">
        <ele>170.77</ele>
        <time>2012-01-23T16:09:05Z</time>
      </trkpt>
      <trkpt lat="48.8893" lon="1.96835">
        <ele>170.29</ele>
        <time>2012-01-23T16:09:35Z</time>
      </trkpt>
      <trkpt lat="48.8893" lon="1.96835">
        <ele>170.29</ele>
        <time>2012-01-23T16:10:03Z</time>
      </trkpt>
      <trkpt lat="48.8892" lon="1.96814">
        <ele>170.77</ele>
        <time>2012-01-23T16:10:16Z</time>
      </trkpt>
      <trkpt lat="48.88905" lon="1.96791">
        <ele>168.85</ele>
        <time>2012-01-23T16:10:31Z</time>
      </trkpt>
      <trkpt lat="48.88892" lon="1.96773">
        <ele>167.89</ele>
        <time>2012-01-23T16:10:45Z</time>
      </trkpt>
      <trkpt lat="48.88889" lon="1.96767">
        <ele>168.37</ele>
        <time>2012-01-23T16:10:49Z</time>
      </trkpt>
      <trkpt lat="48.88879" lon="1.9675">
        <ele>169.81</ele>
        <time>2012-01-23T16:11:01Z</time>
      </trkpt>
      <trkpt lat="48.88865" lon="1.9673">
        <ele>171.25</ele>
        <time>2012-01-23T16:11:17Z</time>
      </trkpt>
      <trkpt lat="48.88852" lon="1.9671">
        <ele>170.77</ele>
        <time>2012-01-23T16:11:32Z</time>
      </trkpt>
      <trkpt lat="48.88843" lon="1.96695">
        <ele>170.29</ele>
        <time>2012-01-23T16:11:43Z</time>
      </trkpt>
      <trkpt lat="48.88835" lon="1.96682">
        <ele>168.85</ele>
        <time>2012-01-23T16:11:52Z</time>
      </trkpt>
      <trkpt lat="48.88821" lon="1.96664">
        <ele>167.41</ele>
        <time>2012-01-23T16:12:07Z</time>
      </trkpt>
      <trkpt lat="48.88808" lon="1.96643">
        <ele>166.93</ele>
        <time>2012-01-23T16:12:21Z</time>
      </trkpt>
      <trkpt lat="48.88793" lon="1.96619">
        <ele>165</ele>
        <time>2012-01-23T16:12:38Z</time>
      </trkpt>
      <trkpt lat="48.88779" lon="1.96593">
        <ele>165.96</ele>
        <time>2012-01-23T16:12:53Z</time>
      </trkpt>
      <trkpt lat="48.88769" lon="1.96576">
        <ele>165.48</ele>
        <time>2012-01-23T16:13:06Z</time>
      </trkpt>
      <trkpt lat="48.88767" lon="1.96572">
        <ele>165.48</ele>
        <time>2012-01-23T16:13:20Z</time>
      </trkpt>
      <trkpt lat="48.88767" lon="1.96572">
        <ele>165.48</ele>
        <time>2012-01-23T16:13:48Z</time>
      </trkpt>
      <trkpt lat="48.88767" lon="1.96571">
        <ele>165.48</ele>
        <time>2012-01-23T16:14:19Z</time>
      </trkpt>
      <trkpt lat="48.88761" lon="1.9657">
        <ele>167.41</ele>
        <time>2012-01-23T16:14:37Z</time>
      </trkpt>
      <trkpt lat="48.88764" lon="1.96564">
        <ele>167.89</ele>
        <time>2012-01-23T16:14:56Z</time>
      </trkpt>
      <trkpt lat="48.88753" lon="1.96534">
        <ele>168.85</ele>
        <time>2012-01-23T16:15:14Z</time>
      </trkpt>
      <trkpt lat="48.88743" lon="1.96508">
        <ele>167.89</ele>
        <time>2012-01-23T16:15:29Z</time>
      </trkpt>
      <trkpt lat="48.88734" lon="1.96483">
        <ele>167.89</ele>
        <time>2012-01-23T16:15:45Z</time>
      </trkpt>
      <trkpt lat="48.88724" lon="1.96455">
        <ele>168.37</ele>
        <time>2012-01-23T16:16:02Z</time>
      </trkpt>
      <trkpt lat="48.88712" lon="1.96425">
        <ele>167.89</ele>
        <time>2012-01-23T16:16:19Z</time>
      </trkpt>
      <trkpt lat="48.887" lon="1.96396">
        <ele>168.85</ele>
        <time>2012-01-23T16:16:36Z</time>
      </trkpt>
      <trkpt lat="48.88688" lon="1.96368">
        <ele>169.33</ele>
        <time>2012-01-23T16:16:53Z</time>
      </trkpt>
      <trkpt lat="48.88676" lon="1.96344">
        <ele>169.33</ele>
        <time>2012-01-23T16:17:09Z</time>
      </trkpt>
      <trkpt lat="48.88663" lon="1.96321">
        <ele>170.77</ele>
        <time>2012-01-23T16:17:25Z</time>
      </trkpt>
      <trkpt lat="48.8865" lon="1.96295">
        <ele>172.21</ele>
        <time>2012-01-23T16:17:42Z</time>
      </trkpt>
      <trkpt lat="48.88638" lon="1.96273">
        <ele>172.69</ele>
        <time>2012-01-23T16:17:57Z</time>
      </trkpt>
      <trkpt lat="48.88627" lon="1.96254">
        <ele>173.17</ele>
        <time>2012-01-23T16:18:10Z</time>
      </trkpt>
      <trkpt lat="48.88613" lon="1.9623">
        <ele>172.69</ele>
        <time>2012-01-23T16:18:26Z</time>
      </trkpt>
      <trkpt lat="48.88602" lon="1.9621">
        <ele>172.21</ele>
        <time>2012-01-23T16:18:41Z</time>
      </trkpt>
      <trkpt lat="48.88588" lon="1.96185">
        <ele>172.21</ele>
        <time>2012-01-23T16:18:57Z</time>
      </trkpt>
      <trkpt lat="48.88575" lon="1.96162">
        <ele>173.66</ele>
        <time>2012-01-23T16:19:12Z</time>
      </trkpt>
      <trkpt lat="48.88561" lon="1.96139">
        <ele>172.69</ele>
        <time>2012-01-23T16:19:28Z</time>
      </trkpt>
      <trkpt lat="48.88547" lon="1.96118">
        <ele>172.69</ele>
        <time>2012-01-23T16:19:43Z</time>
      </trkpt>
      <trkpt lat="48.88533" lon="1.961">
        <ele>171.73</ele>
        <time>2012-01-23T16:19:57Z</time>
      </trkpt>
      <trkpt lat="48.88528" lon="1.96095">
        <ele>172.21</ele>
        <time>2012-01-23T16:20:02Z</time>
      </trkpt>
      <trkpt lat="48.88512" lon="1.96078">
        <ele>172.69</ele>
        <time>2012-01-23T16:20:17Z</time>
      </trkpt>
      <trkpt lat="48.88495" lon="1.96059">
        <ele>172.21</ele>
        <time>2012-01-23T16:20:33Z</time>
      </trkpt>
      <trkpt lat="48.88482" lon="1.96044">
        <ele>173.66</ele>
        <time>2012-01-23T16:20:46Z</time>
      </trkpt>
      <trkpt lat="48.88468" lon="1.96029">
        <ele>172.69</ele>
        <time>2012-01-23T16:21:00Z</time>
      </trkpt>
      <trkpt lat="48.88466" lon="1.96025">
        <ele>172.69</ele>
        <time>2012-01-23T16:21:14Z</time>
      </trkpt>
      <trkpt lat="48.88465" lon="1.96024">
        <ele>172.69</ele>
        <time>2012-01-23T16:21:35Z</time>
      </trkpt>
      <trkpt lat="48.88453" lon="1.96002">
        <ele>172.69</ele>
        <time>2012-01-23T16:21:49Z</time>
      </trkpt>
      <trkpt lat="48.88439" lon="1.9598">
        <ele>170.77</ele>
        <time>2012-01-23T16:22:04Z</time>
      </trkpt>
      <trkpt lat="48.88429" lon="1.95957">
        <ele>169.33</ele>
        <time>2012-01-23T16:22:18Z</time>
      </trkpt>
      <trkpt lat="48.8842" lon="1.95938">
        <ele>169.81</ele>
        <time>2012-01-23T16:22:32Z</time>
      </trkpt>
      <trkpt lat="48.88419" lon="1.95936">
        <ele>169.81</ele>
        <time>2012-01-23T16:22:33Z</time>
      </trkpt>
      <trkpt lat="48.88407" lon="1.95917">
        <ele>168.85</ele>
        <time>2012-01-23T16:22:47Z</time>
      </trkpt>
      <trkpt lat="48.88394" lon="1.95896">
        <ele>167.41</ele>
        <time>2012-01-23T16:23:03Z</time>
      </trkpt>
      <trkpt lat="48.88373" lon="1.9588">
        <ele>166.45</ele>
        <time>2012-01-23T16:23:22Z</time>
      </trkpt>
      <trkpt lat="48.88364" lon="1.95877">
        <ele>165.48</ele>
        <time>2012-01-23T16:23:31Z</time>
      </trkpt>
      <trkpt lat="48.88351" lon="1.95866">
        <ele>166.45</ele>
        <time>2012-01-23T16:23:44Z</time>
      </trkpt>
      <trkpt lat="48.88343" lon="1.95856">
        <ele>166.45</ele>
        <time>2012-01-23T16:23:56Z</time>
      </trkpt>
      <trkpt lat="48.8834" lon="1.95854">
        <ele>166.45</ele>
        <time>2012-01-23T16:24:00Z</time>
      </trkpt>
      <trkpt lat="48.88326" lon="1.95844">
        <ele>166.45</ele>
        <time>2012-01-23T16:24:14Z</time>
      </trkpt>
      <trkpt lat="48.88315" lon="1.95831">
        <ele>167.89</ele>
        <time>2012-01-23T16:24:28Z</time>
      </trkpt>
      <trkpt lat="48.88307" lon="1.95819">
        <ele>169.81</ele>
        <time>2012-01-23T16:24:40Z</time>
      </trkpt>
      <trkpt lat="48.883" lon="1.95801">
        <ele>171.25</ele>
        <time>2012-01-23T16:24:54Z</time>
      </trkpt>
      <trkpt lat="48.88292" lon="1.95787">
        <ele>169.33</ele>
        <time>2012-01-23T16:25:09Z</time>
      </trkpt>
      <trkpt lat="48.88284" lon="1.95781">
        <ele>166.93</ele>
        <time>2012-01-23T16:25:17Z</time>
      </trkpt>
      <trkpt lat="48.88277" lon="1.95778">
        <ele>167.41</ele>
        <time>2012-01-23T16:25:32Z</time>
      </trkpt>
      <trkpt lat="48.88266" lon="1.95778">
        <ele>171.25</ele>
        <time>2012-01-23T16:25:41Z</time>
      </trkpt>
      <trkpt lat="48.88263" lon="1.95778">
        <ele>171.73</ele>
        <time>2012-01-23T16:25:43Z</time>
      </trkpt>
      <trkpt lat="48.88256" lon="1.95776">
        <ele>172.21</ele>
        <time>2012-01-23T16:25:49Z</time>
      </trkpt>
      <trkpt lat="48.88238" lon="1.95777">
        <ele>172.69</ele>
        <time>2012-01-23T16:26:04Z</time>
      </trkpt>
      <trkpt lat="48.88234" lon="1.95777">
        <ele>172.69</ele>
        <time>2012-01-23T16:26:07Z</time>
      </trkpt>
      <trkpt lat="48.88215" lon="1.95781">
        <ele>172.69</ele>
        <time>2012-01-23T16:26:23Z</time>
      </trkpt>
      <trkpt lat="48.88199" lon="1.95796">
        <ele>169.81</ele>
        <time>2012-01-23T16:26:37Z</time>
      </trkpt>
      <trkpt lat="48.88184" lon="1.95809">
        <ele>168.37</ele>
        <time>2012-01-23T16:26:50Z</time>
      </trkpt>
      <trkpt lat="48.88164" lon="1.95811">
        <ele>169.33</ele>
        <time>2012-01-23T16:27:05Z</time>
      </trkpt>
      <trkpt lat="48.8815" lon="1.95809">
        <ele>166.93</ele>
        <time>2012-01-23T16:27:16Z</time>
      </trkpt>
      <trkpt lat="48.88139" lon="1.95806">
        <ele>165.48</ele>
        <time>2012-01-23T16:27:24Z</time>
      </trkpt>
      <trkpt lat="48.88134" lon="1.95808">
        <ele>165.96</ele>
        <time>2012-01-23T16:27:37Z</time>
      </trkpt>
      <trkpt lat="48.88133" lon="1.95807">
        <ele>165.96</ele>
        <time>2012-01-23T16:27:55Z</time>
      </trkpt>
      <trkpt lat="48.88131" lon="1.95808">
        <ele>165.96</ele>
        <time>2012-01-23T16:27:57Z</time>
      </trkpt>
      <trkpt lat="48.88114" lon="1.95814">
        <ele>166.45</ele>
        <time>2012-01-23T16:28:11Z</time>
      </trkpt>
      <trkpt lat="48.88099" lon="1.95822">
        <ele>167.41</ele>
        <time>2012-01-23T16:28:23Z</time>
      </trkpt>
      <trkpt lat="48.88085" lon="1.95828">
        <ele>168.37</ele>
        <time>2012-01-23T16:28:34Z</time>
      </trkpt>
      <trkpt lat="48.88066" lon="1.95835">
        <ele>167.41</ele>
        <time>2012-01-23T16:28:48Z</time>
      </trkpt>
      <trkpt lat="48.8805" lon="1.95843">
        <ele>165</ele>
        <time>2012-01-23T16:29:01Z</time>
      </trkpt>
      <trkpt lat="48.88038" lon="1.95847">
        <ele>165</ele>
        <time>2012-01-23T16:29:12Z</time>
      </trkpt>
      <trkpt lat="48.88035" lon="1.95848">
        <ele>165</ele>
        <time>2012-01-23T16:29:14Z</time>
      </trkpt>
      <trkpt lat="48.88017" lon="1.95855">
        <ele>163.56</ele>
        <time>2012-01-23T16:29:27Z</time>
      </trkpt>
      <trkpt lat="48.88001" lon="1.95862">
        <ele>162.6</ele>
        <time>2012-01-23T16:29:40Z</time>
      </trkpt>
      <trkpt lat="48.87994" lon="1.9586">
        <ele>162.12</ele>
        <time>2012-01-23T16:29:49Z</time>
      </trkpt>
      <trkpt lat="48.87989" lon="1.9586">
        <ele>161.64</ele>
        <time>2012-01-23T16:29:52Z</time>
      </trkpt>
      <trkpt lat="48.87986" lon="1.95857">
        <ele>160.68</ele>
        <time>2012-01-23T16:29:56Z</time>
      </trkpt>
      <trkpt lat="48.87982" lon="1.95847">
        <ele>157.79</ele>
        <time>2012-01-23T16:30:12Z</time>
      </trkpt>
      <trkpt lat="48.87973" lon="1.95839">
        <ele>154.91</ele>
        <time>2012-01-23T16:30:25Z</time>
      </trkpt>
      <trkpt lat="48.87958" lon="1.95826">
        <ele>152.03</ele>
        <time>2012-01-23T16:30:39Z</time>
      </trkpt>
      <trkpt lat="48.87946" lon="1.95814">
        <ele>150.58</ele>
        <time>2012-01-23T16:30:51Z</time>
      </trkpt>
      <trkpt lat="48.87944" lon="1.95811">
        <ele>150.1</ele>
        <time>2012-01-23T16:30:53Z</time>
      </trkpt>
      <trkpt lat="48.8793" lon="1.95793">
        <ele>147.7</ele>
        <time>2012-01-23T16:31:07Z</time>
      </trkpt>
      <trkpt lat="48.87918" lon="1.95781">
        <ele>144.34</ele>
        <time>2012-01-23T16:31:20Z</time>
      </trkpt>
      <trkpt lat="48.87905" lon="1.95768">
        <ele>141.93</ele>
        <time>2012-01-23T16:31:32Z</time>
      </trkpt>
      <trkpt lat="48.87888" lon="1.95757">
        <ele>139.53</ele>
        <time>2012-01-23T16:31:45Z</time>
      </trkpt>
      <trkpt lat="48.87875" lon="1.95752">
        <ele>140.01</ele>
        <time>2012-01-23T16:31:56Z</time>
      </trkpt>
      <trkpt lat="48.87865" lon="1.95739">
        <ele>138.57</ele>
        <time>2012-01-23T16:32:06Z</time>
      </trkpt>
      <trkpt lat="48.87846" lon="1.95725">
        <ele>136.16</ele>
        <time>2012-01-23T16:32:21Z</time>
      </trkpt>
      <trkpt lat="48.87833" lon="1.95714">
        <ele>135.2</ele>
        <time>2012-01-23T16:32:32Z</time>
      </trkpt>
      <trkpt lat="48.87813" lon="1.957">
        <ele>134.24</ele>
        <time>2012-01-23T16:32:48Z</time>
      </trkpt>
      <trkpt lat="48.87806" lon="1.95693">
        <ele>134.72</ele>
        <time>2012-01-23T16:33:02Z</time>
      </trkpt>
      <trkpt lat="48.87806" lon="1.95693">
        <ele>134.72</ele>
        <time>2012-01-23T16:33:03Z</time>
      </trkpt>
      <trkpt lat="48.87803" lon="1.95694">
        <ele>134.24</ele>
        <time>2012-01-23T16:33:10Z</time>
      </trkpt>
      <trkpt lat="48.87801" lon="1.9569">
        <ele>134.72</ele>
        <time>2012-01-23T16:33:13Z</time>
      </trkpt>
      <trkpt lat="48.87786" lon="1.95671">
        <ele>137.13</ele>
        <time>2012-01-23T16:33:28Z</time>
      </trkpt>
      <trkpt lat="48.87784" lon="1.95668">
        <ele>137.61</ele>
        <time>2012-01-23T16:33:30Z</time>
      </trkpt>
      <trkpt lat="48.8777" lon="1.95663">
        <ele>133.76</ele>
        <time>2012-01-23T16:33:42Z</time>
      </trkpt>
      <trkpt lat="48.8776" lon="1.95661">
        <ele>129.92</ele>
        <time>2012-01-23T16:33:51Z</time>
      </trkpt>
      <trkpt lat="48.87739" lon="1.95657">
        <ele>127.03</ele>
        <time>2012-01-23T16:34:07Z</time>
      </trkpt>
      <trkpt lat="48.87737" lon="1.95657">
        <ele>127.03</ele>
        <time>2012-01-23T16:34:08Z</time>
      </trkpt>
      <trkpt lat="48.87734" lon="1.95655">
        <ele>126.55</ele>
        <time>2012-01-23T16:34:22Z</time>
      </trkpt>
      <trkpt lat="48.87734" lon="1.95655">
        <ele>126.55</ele>
        <time>2012-01-23T16:34:41Z</time>
      </trkpt>
      <trkpt lat="48.87719" lon="1.95647">
        <ele>126.07</ele>
        <time>2012-01-23T16:34:54Z</time>
      </trkpt>
      <trkpt lat="48.87699" lon="1.95633">
        <ele>127.99</ele>
        <time>2012-01-23T16:35:09Z</time>
      </trkpt>
      <trkpt lat="48.87677" lon="1.95615">
        <ele>127.03</ele>
        <time>2012-01-23T16:35:26Z</time>
      </trkpt>
      <trkpt lat="48.87658" lon="1.95595">
        <ele>124.63</ele>
        <time>2012-01-23T16:35:44Z</time>
      </trkpt>
      <trkpt lat="48.87639" lon="1.95573">
        <ele>122.71</ele>
        <time>2012-01-23T16:36:01Z</time>
      </trkpt>
      <trkpt lat="48.87623" lon="1.9555">
        <ele>122.22</ele>
        <time>2012-01-23T16:36:17Z</time>
      </trkpt>
      <trkpt lat="48.87611" lon="1.95536">
        <ele>121.74</ele>
        <time>2012-01-23T16:36:33Z</time>
      </trkpt>
      <trkpt lat="48.87598" lon="1.95518">
        <ele>120.78</ele>
        <time>2012-01-23T16:36:47Z</time>
      </trkpt>
      <trkpt lat="48.87581" lon="1.95496">
        <ele>120.3</ele>
        <time>2012-01-23T16:37:03Z</time>
      </trkpt>
      <trkpt lat="48.87562" lon="1.95473">
        <ele>118.86</ele>
        <time>2012-01-23T16:37:20Z</time>
      </trkpt>
      <trkpt lat="48.87547" lon="1.95454">
        <ele>116.94</ele>
        <time>2012-01-23T16:37:34Z</time>
      </trkpt>
      <trkpt lat="48.87529" lon="1.95436">
        <ele>115.98</ele>
        <time>2012-01-23T16:37:49Z</time>
      </trkpt>
      <trkpt lat="48.8751" lon="1.95417">
        <ele>115.98</ele>
        <time>2012-01-23T16:38:05Z</time>
      </trkpt>
      <trkpt lat="48.87488" lon="1.95396">
        <ele>115.98</ele>
        <time>2012-01-23T16:38:23Z</time>
      </trkpt>
      <trkpt lat="48.87467" lon="1.95376">
        <ele>115.5</ele>
        <time>2012-01-23T16:38:41Z</time>
      </trkpt>
      <trkpt lat="48.87449" lon="1.95359">
        <ele>115.01</ele>
        <time>2012-01-23T16:38:57Z</time>
      </trkpt>
      <trkpt lat="48.87443" lon="1.95353">
        <ele>114.05</ele>
        <time>2012-01-23T16:39:12Z</time>
      </trkpt>
      <trkpt lat="48.87441" lon="1.95351">
        <ele>114.53</ele>
        <time>2012-01-23T16:39:22Z</time>
      </trkpt>
      <trkpt lat="48.87432" lon="1.95342">
        <ele>114.05</ele>
        <time>2012-01-23T16:39:30Z</time>
      </trkpt>
      <trkpt lat="48.87409" lon="1.9532">
        <ele>113.57</ele>
        <time>2012-01-23T16:39:50Z</time>
      </trkpt>
      <trkpt lat="48.87387" lon="1.95299">
        <ele>114.05</ele>
        <time>2012-01-23T16:40:08Z</time>
      </trkpt>
      <trkpt lat="48.8737" lon="1.9528">
        <ele>114.53</ele>
        <time>2012-01-23T16:40:23Z</time>
      </trkpt>
      <trkpt lat="48.87346" lon="1.95261">
        <ele>113.09</ele>
        <time>2012-01-23T16:40:43Z</time>
      </trkpt>
      <trkpt lat="48.87322" lon="1.95242">
        <ele>111.65</ele>
        <time>2012-01-23T16:41:02Z</time>
      </trkpt>
      <trkpt lat="48.87317" lon="1.9524">
        <ele>111.17</ele>
        <time>2012-01-23T16:41:15Z</time>
      </trkpt>
      <trkpt lat="48.87296" lon="1.95226">
        <ele>110.69</ele>
        <time>2012-01-23T16:41:31Z</time>
      </trkpt>
      <trkpt lat="48.87273" lon="1.95222">
        <ele>111.17</ele>
        <time>2012-01-23T16:41:48Z</time>
      </trkpt>
      <trkpt lat="48.87247" lon="1.95224">
        <ele>111.17</ele>
        <time>2012-01-23T16:42:07Z</time>
      </trkpt>
      <trkpt lat="48.87224" lon="1.95217">
        <ele>111.17</ele>
        <time>2012-01-23T16:42:24Z</time>
      </trkpt>
      <trkpt lat="48.87201" lon="1.95204">
        <ele>109.73</ele>
        <time>2012-01-23T16:42:42Z</time>
      </trkpt>
      <trkpt lat="48.87182" lon="1.95191">
        <ele>109.25</ele>
        <time>2012-01-23T16:42:57Z</time>
      </trkpt>
      <trkpt lat="48.87162" lon="1.95176">
        <ele>109.73</ele>
        <time>2012-01-23T16:43:14Z</time>
      </trkpt>
      <trkpt lat="48.87137" lon="1.95159">
        <ele>110.21</ele>
        <time>2012-01-23T16:43:33Z</time>
      </trkpt>
      <trkpt lat="48.87113" lon="1.95144">
        <ele>108.29</ele>
        <time>2012-01-23T16:43:52Z</time>
      </trkpt>
      <trkpt lat="48.87089" lon="1.9513">
        <ele>107.81</ele>
        <time>2012-01-23T16:44:10Z</time>
      </trkpt>
      <trkpt lat="48.87065" lon="1.95116">
        <ele>104.92</ele>
        <time>2012-01-23T16:44:28Z</time>
      </trkpt>
      <trkpt lat="48.87041" lon="1.95103">
        <ele>103.48</ele>
        <time>2012-01-23T16:44:46Z</time>
      </trkpt>
      <trkpt lat="48.87018" lon="1.95091">
        <ele>101.56</ele>
        <time>2012-01-23T16:45:04Z</time>
      </trkpt>
      <trkpt lat="48.86998" lon="1.95079">
        <ele>101.08</ele>
        <time>2012-01-23T16:45:20Z</time>
      </trkpt>
      <trkpt lat="48.86977" lon="1.95064">
        <ele>102.52</ele>
        <time>2012-01-23T16:45:37Z</time>
      </trkpt>
      <trkpt lat="48.86959" lon="1.9505">
        <ele>103.96</ele>
        <time>2012-01-23T16:45:52Z</time>
      </trkpt>
      <trkpt lat="48.8694" lon="1.95036">
        <ele>103</ele>
        <time>2012-01-23T16:46:08Z</time>
      </trkpt>
      <trkpt lat="48.86921" lon="1.95021">
        <ele>102.52</ele>
        <time>2012-01-23T16:46:24Z</time>
      </trkpt>
      <trkpt lat="48.86899" lon="1.95006">
        <ele>102.04</ele>
        <time>2012-01-23T16:46:41Z</time>
      </trkpt>
      <trkpt lat="48.86881" lon="1.94993">
        <ele>101.56</ele>
        <time>2012-01-23T16:46:56Z</time>
      </trkpt>
      <trkpt lat="48.86859" lon="1.94977">
        <ele>102.52</ele>
        <time>2012-01-23T16:47:14Z</time>
      </trkpt>
      <trkpt lat="48.86837" lon="1.94959">
        <ele>100.6</ele>
        <time>2012-01-23T16:47:32Z</time>
      </trkpt>
      <trkpt lat="48.8682" lon="1.94941">
        <ele>99.63</ele>
        <time>2012-01-23T16:47:47Z</time>
      </trkpt>
      <trkpt lat="48.86803" lon="1.94919">
        <ele>97.23</ele>
        <time>2012-01-23T16:48:05Z</time>
      </trkpt>
      <trkpt lat="48.86802" lon="1.94918">
        <ele>96.75</ele>
        <time>2012-01-23T16:48:06Z</time>
      </trkpt>
      <trkpt lat="48.86794" lon="1.94907">
        <ele>96.27</ele>
        <time>2012-01-23T16:48:14Z</time>
      </trkpt>
      <trkpt lat="48.86782" lon="1.94883">
        <ele>93.39</ele>
        <time>2012-01-23T16:48:30Z</time>
      </trkpt>
      <trkpt lat="48.86768" lon="1.94849">
        <ele>91.46</ele>
        <time>2012-01-23T16:48:49Z</time>
      </trkpt>
      <trkpt lat="48.86753" lon="1.9482">
        <ele>93.87</ele>
        <time>2012-01-23T16:49:06Z</time>
      </trkpt>
      <trkpt lat="48.86743" lon="1.94791">
        <ele>95.79</ele>
        <time>2012-01-23T16:49:22Z</time>
      </trkpt>
      <trkpt lat="48.86729" lon="1.94763">
        <ele>95.79</ele>
        <time>2012-01-23T16:49:38Z</time>
      </trkpt>
      <trkpt lat="48.86715" lon="1.94737">
        <ele>96.75</ele>
        <time>2012-01-23T16:49:54Z</time>
      </trkpt>
      <trkpt lat="48.86697" lon="1.94712">
        <ele>98.67</ele>
        <time>2012-01-23T16:50:12Z</time>
      </trkpt>
      <trkpt lat="48.86681" lon="1.94698">
        <ele>98.67</ele>
        <time>2012-01-23T16:50:27Z</time>
      </trkpt>
      <trkpt lat="48.86679" lon="1.94696">
        <ele>98.67</ele>
        <time>2012-01-23T16:50:29Z</time>
      </trkpt>
      <trkpt lat="48.8666" lon="1.947">
        <ele>96.27</ele>
        <time>2012-01-23T16:50:46Z</time>
      </trkpt>
      <trkpt lat="48.86647" lon="1.94709">
        <ele>95.79</ele>
        <time>2012-01-23T16:50:58Z</time>
      </trkpt>
      <trkpt lat="48.86631" lon="1.94716">
        <ele>99.15</ele>
        <time>2012-01-23T16:51:11Z</time>
      </trkpt>
      <trkpt lat="48.86612" lon="1.94727">
        <ele>102.04</ele>
        <time>2012-01-23T16:51:26Z</time>
      </trkpt>
      <trkpt lat="48.86604" lon="1.94728">
        <ele>104.44</ele>
        <time>2012-01-23T16:51:32Z</time>
      </trkpt>
      <trkpt lat="48.86598" lon="1.9473">
        <ele>105.4</ele>
        <time>2012-01-23T16:51:36Z</time>
      </trkpt>
      <trkpt lat="48.86593" lon="1.94733">
        <ele>107.32</ele>
        <time>2012-01-23T16:51:40Z</time>
      </trkpt>
      <trkpt lat="48.86584" lon="1.94738">
        <ele>107.81</ele>
        <time>2012-01-23T16:51:45Z</time>
      </trkpt>
      <trkpt lat="48.86581" lon="1.94716">
        <ele>108.77</ele>
        <time>2012-01-23T16:52:01Z</time>
      </trkpt>
      <trkpt lat="48.86583" lon="1.9471">
        <ele>109.73</ele>
        <time>2012-01-23T16:52:12Z</time>
      </trkpt>
      <trkpt lat="48.86583" lon="1.94687">
        <ele>108.77</ele>
        <time>2012-01-23T16:52:23Z</time>
      </trkpt>
      <trkpt lat="48.86588" lon="1.94653">
        <ele>107.32</ele>
        <time>2012-01-23T16:52:40Z</time>
      </trkpt>
      <trkpt lat="48.86594" lon="1.94616">
        <ele>107.81</ele>
        <time>2012-01-23T16:52:57Z</time>
      </trkpt>
      <trkpt lat="48.86597" lon="1.94576">
        <ele>104.92</ele>
        <time>2012-01-23T16:53:17Z</time>
      </trkpt>
      <trkpt lat="48.86607" lon="1.94552">
        <ele>103.96</ele>
        <time>2012-01-23T16:53:31Z</time>
      </trkpt>
      <trkpt lat="48.86608" lon="1.9455">
        <ele>103.48</ele>
        <time>2012-01-23T16:53:32Z</time>
      </trkpt>
      <trkpt lat="48.86613" lon="1.94545">
        <ele>102.52</ele>
        <time>2012-01-23T16:53:37Z</time>
      </trkpt>
      <trkpt lat="48.86619" lon="1.94525">
        <ele>100.6</ele>
        <time>2012-01-23T16:53:47Z</time>
      </trkpt>
      <trkpt lat="48.86622" lon="1.94518">
        <ele>98.19</ele>
        <time>2012-01-23T16:53:59Z</time>
      </trkpt>
      <trkpt lat="48.86621" lon="1.94515">
        <ele>98.19</ele>
        <time>2012-01-23T16:54:20Z</time>
      </trkpt>
      <trkpt lat="48.86616" lon="1.94477">
        <ele>98.19</ele>
        <time>2012-01-23T16:54:38Z</time>
      </trkpt>
      <trkpt lat="48.86615" lon="1.94445">
        <ele>96.75</ele>
        <time>2012-01-23T16:54:53Z</time>
      </trkpt>
      <trkpt lat="48.86614" lon="1.94411">
        <ele>93.87</ele>
        <time>2012-01-23T16:55:10Z</time>
      </trkpt>
      <trkpt lat="48.86612" lon="1.94387">
        <ele>91.46</ele>
        <time>2012-01-23T16:55:24Z</time>
      </trkpt>
      <trkpt lat="48.86611" lon="1.94384">
        <ele>91.46</ele>
        <time>2012-01-23T16:55:30Z</time>
      </trkpt>
      <trkpt lat="48.86612" lon="1.94372">
        <ele>91.94</ele>
        <time>2012-01-23T16:55:36Z</time>
      </trkpt>
      <trkpt lat="48.86613" lon="1.94343">
        <ele>92.9</ele>
        <time>2012-01-23T16:55:51Z</time>
      </trkpt>
      <trkpt lat="48.86612" lon="1.94333">
        <ele>93.39</ele>
        <time>2012-01-23T16:55:56Z</time>
      </trkpt>
      <trkpt lat="48.8661" lon="1.94299">
        <ele>94.83</ele>
        <time>2012-01-23T16:56:12Z</time>
      </trkpt>
      <trkpt lat="48.86607" lon="1.94267">
        <ele>95.79</ele>
        <time>2012-01-23T16:56:27Z</time>
      </trkpt>
      <trkpt lat="48.86604" lon="1.94241">
        <ele>97.23</ele>
        <time>2012-01-23T16:56:41Z</time>
      </trkpt>
      <trkpt lat="48.86603" lon="1.94236">
        <ele>96.75</ele>
        <time>2012-01-23T16:56:44Z</time>
      </trkpt>
      <trkpt lat="48.86602" lon="1.94227">
        <ele>94.35</ele>
        <time>2012-01-23T16:56:50Z</time>
      </trkpt>
      <trkpt lat="48.86599" lon="1.9421">
        <ele>88.58</ele>
        <time>2012-01-23T16:57:03Z</time>
      </trkpt>
      <trkpt lat="48.86595" lon="1.9418">
        <ele>90.02</ele>
        <time>2012-01-23T16:57:19Z</time>
      </trkpt>
      <trkpt lat="48.8659" lon="1.94145">
        <ele>97.71</ele>
        <time>2012-01-23T16:57:34Z</time>
      </trkpt>
      <trkpt lat="48.86586" lon="1.94114">
        <ele>100.6</ele>
        <time>2012-01-23T16:57:50Z</time>
      </trkpt>
      <trkpt lat="48.86582" lon="1.94081">
        <ele>101.08</ele>
        <time>2012-01-23T16:58:06Z</time>
      </trkpt>
      <trkpt lat="48.86579" lon="1.94073">
        <ele>101.08</ele>
        <time>2012-01-23T16:58:17Z</time>
      </trkpt>
      <trkpt lat="48.86578" lon="1.94073">
        <ele>101.56</ele>
        <time>2012-01-23T16:58:35Z</time>
      </trkpt>
      <trkpt lat="48.86579" lon="1.94073">
        <ele>101.56</ele>
        <time>2012-01-23T16:58:51Z</time>
      </trkpt>
      <trkpt lat="48.86579" lon="1.94073">
        <ele>101.56</ele>
        <time>2012-01-23T16:59:24Z</time>
      </trkpt>
      <trkpt lat="48.86579" lon="1.94073">
        <ele>101.56</ele>
        <time>2012-01-23T16:59:45Z</time>
      </trkpt>
      <trkpt lat="48.86579" lon="1.94073">
        <ele>101.56</ele>
        <time>2012-01-23T17:00:04Z</time>
      </trkpt>
      <trkpt lat="48.86579" lon="1.94073">
        <ele>101.56</ele>
        <time>2012-01-23T17:00:30Z</time>
      </trkpt>
      <trkpt lat="48.86579" lon="1.94073">
        <ele>101.56</ele>
        <time>2012-01-23T17:01:06Z</time>
      </trkpt>
      <trkpt lat="48.86579" lon="1.94073">
        <ele>101.08</ele>
        <time>2012-01-23T17:01:28Z</time>
      </trkpt>
      <trkpt lat="48.86579" lon="1.94073">
        <ele>101.08</ele>
        <time>2012-01-23T17:01:53Z</time>
      </trkpt>
      <trkpt lat="48.86579" lon="1.94073">
        <ele>101.08</ele>
        <time>2012-01-23T17:02:22Z</time>
      </trkpt>
      <trkpt lat="48.86579" lon="1.94073">
        <ele>101.08</ele>
        <time>2012-01-23T17:02:55Z</time>
      </trkpt>
      <trkpt lat="48.86579" lon="1.94073">
        <ele>101.08</ele>
        <time>2012-01-23T17:03:27Z</time>
      </trkpt>
      <trkpt lat="48.86579" lon="1.94073">
        <ele>101.08</ele>
        <time>2012-01-23T17:03:57Z</time>
      </trkpt>
    </trkseg>
  </trk>
</gpx>